<?xml version="1.0" encoding="UTF-8" standalone="no" ?>
<gpx xmlns="http://www.topografix.com/GPX/1/1" xmlns:xsi="http://www.w3.org/2001/XMLSchema-instance" xsi:schemaLocation="http://www.topografix.com/GPX/1/1 http://www.topografix.com/GPX/1/1/gpx.xsd" version="1.1" creator="VisuGPX - https://www.visugpx.com">
  <metadata>
    <name>Thuès - Entre-Valls- les sources</name>
    <desc><![CDATA[prêt pour la baignade]]></desc>
  </metadata>
  <trk>
    <name><![CDATA[Thuès-Entre-Valls Marche 20 avr. 2019 à 15:17]]></name>
    <trkseg>
      <trkpt lat="42.52552" lon="2.22564">
        <ele>810</ele>
        <time>2019-04-20T13:17:21Z</time>
      </trkpt>
      <trkpt lat="42.52559" lon="2.22551">
        <ele>810</ele>
        <time>2019-04-20T13:17:33Z</time>
      </trkpt>
      <trkpt lat="42.52561" lon="2.22538">
        <ele>810</ele>
        <time>2019-04-20T13:17:40Z</time>
      </trkpt>
      <trkpt lat="42.52564" lon="2.22526">
        <ele>811</ele>
        <time>2019-04-20T13:17:49Z</time>
      </trkpt>
      <trkpt lat="42.52567" lon="2.22514">
        <ele>812</ele>
        <time>2019-04-20T13:17:59Z</time>
      </trkpt>
      <trkpt lat="42.52568" lon="2.22501">
        <ele>812</ele>
        <time>2019-04-20T13:18:07Z</time>
      </trkpt>
      <trkpt lat="42.52569" lon="2.22486">
        <ele>812</ele>
        <time>2019-04-20T13:18:20Z</time>
      </trkpt>
      <trkpt lat="42.52565" lon="2.22475">
        <ele>811</ele>
        <time>2019-04-20T13:18:30Z</time>
      </trkpt>
      <trkpt lat="42.52557" lon="2.22464">
        <ele>809</ele>
        <time>2019-04-20T13:18:38Z</time>
      </trkpt>
      <trkpt lat="42.52553" lon="2.22452">
        <ele>808</ele>
        <time>2019-04-20T13:18:48Z</time>
      </trkpt>
      <trkpt lat="42.52552" lon="2.22439">
        <ele>808</ele>
        <time>2019-04-20T13:18:56Z</time>
      </trkpt>
      <trkpt lat="42.52547" lon="2.22429">
        <ele>808</ele>
        <time>2019-04-20T13:19:02Z</time>
      </trkpt>
      <trkpt lat="42.52547" lon="2.22415">
        <ele>809</ele>
        <time>2019-04-20T13:19:10Z</time>
      </trkpt>
      <trkpt lat="42.52541" lon="2.22402">
        <ele>809</ele>
        <time>2019-04-20T13:19:18Z</time>
      </trkpt>
      <trkpt lat="42.52531" lon="2.22392">
        <ele>808</ele>
        <time>2019-04-20T13:19:26Z</time>
      </trkpt>
      <trkpt lat="42.52528" lon="2.22381">
        <ele>808</ele>
        <time>2019-04-20T13:19:34Z</time>
      </trkpt>
      <trkpt lat="42.52526" lon="2.22367">
        <ele>809</ele>
        <time>2019-04-20T13:19:42Z</time>
      </trkpt>
      <trkpt lat="42.52522" lon="2.22353">
        <ele>809</ele>
        <time>2019-04-20T13:19:50Z</time>
      </trkpt>
      <trkpt lat="42.52521" lon="2.22339">
        <ele>810</ele>
        <time>2019-04-20T13:20:00Z</time>
      </trkpt>
      <trkpt lat="42.5252" lon="2.22323">
        <ele>810</ele>
        <time>2019-04-20T13:20:08Z</time>
      </trkpt>
      <trkpt lat="42.52523" lon="2.22307">
        <ele>810</ele>
        <time>2019-04-20T13:20:16Z</time>
      </trkpt>
      <trkpt lat="42.52522" lon="2.22294">
        <ele>810</ele>
        <time>2019-04-20T13:20:24Z</time>
      </trkpt>
      <trkpt lat="42.52525" lon="2.22281">
        <ele>811</ele>
        <time>2019-04-20T13:20:34Z</time>
      </trkpt>
      <trkpt lat="42.52517" lon="2.22271">
        <ele>810</ele>
        <time>2019-04-20T13:20:42Z</time>
      </trkpt>
      <trkpt lat="42.52516" lon="2.22258">
        <ele>810</ele>
        <time>2019-04-20T13:20:50Z</time>
      </trkpt>
      <trkpt lat="42.52519" lon="2.22246">
        <ele>810</ele>
        <time>2019-04-20T13:21:00Z</time>
      </trkpt>
      <trkpt lat="42.52509" lon="2.22245">
        <ele>811</ele>
        <time>2019-04-20T13:21:10Z</time>
      </trkpt>
      <trkpt lat="42.525" lon="2.22245">
        <ele>813</ele>
        <time>2019-04-20T13:21:18Z</time>
      </trkpt>
      <trkpt lat="42.52491" lon="2.22247">
        <ele>813</ele>
        <time>2019-04-20T13:21:26Z</time>
      </trkpt>
      <trkpt lat="42.52484" lon="2.22256">
        <ele>814</ele>
        <time>2019-04-20T13:21:34Z</time>
      </trkpt>
      <trkpt lat="42.52478" lon="2.22266">
        <ele>814</ele>
        <time>2019-04-20T13:21:42Z</time>
      </trkpt>
      <trkpt lat="42.5247" lon="2.22275">
        <ele>816</ele>
        <time>2019-04-20T13:21:52Z</time>
      </trkpt>
      <trkpt lat="42.52461" lon="2.22273">
        <ele>818</ele>
        <time>2019-04-20T13:22:02Z</time>
      </trkpt>
      <trkpt lat="42.52452" lon="2.22274">
        <ele>819</ele>
        <time>2019-04-20T13:22:14Z</time>
      </trkpt>
      <trkpt lat="42.52443" lon="2.22275">
        <ele>820</ele>
        <time>2019-04-20T13:22:24Z</time>
      </trkpt>
      <trkpt lat="42.52434" lon="2.22281">
        <ele>821</ele>
        <time>2019-04-20T13:22:34Z</time>
      </trkpt>
      <trkpt lat="42.52425" lon="2.22289">
        <ele>822</ele>
        <time>2019-04-20T13:22:44Z</time>
      </trkpt>
      <trkpt lat="42.52415" lon="2.22291">
        <ele>824</ele>
        <time>2019-04-20T13:22:54Z</time>
      </trkpt>
      <trkpt lat="42.52405" lon="2.22292">
        <ele>826</ele>
        <time>2019-04-20T13:23:04Z</time>
      </trkpt>
      <trkpt lat="42.52396" lon="2.22292">
        <ele>828</ele>
        <time>2019-04-20T13:23:16Z</time>
      </trkpt>
      <trkpt lat="42.52385" lon="2.22289">
        <ele>829</ele>
        <time>2019-04-20T13:23:28Z</time>
      </trkpt>
      <trkpt lat="42.52375" lon="2.22285">
        <ele>830</ele>
        <time>2019-04-20T13:23:42Z</time>
      </trkpt>
      <trkpt lat="42.52366" lon="2.22282">
        <ele>831</ele>
        <time>2019-04-20T13:23:52Z</time>
      </trkpt>
      <trkpt lat="42.52357" lon="2.22276">
        <ele>831</ele>
        <time>2019-04-20T13:24:06Z</time>
      </trkpt>
      <trkpt lat="42.52347" lon="2.22271">
        <ele>832</ele>
        <time>2019-04-20T13:24:14Z</time>
      </trkpt>
      <trkpt lat="42.52337" lon="2.22268">
        <ele>834</ele>
        <time>2019-04-20T13:24:24Z</time>
      </trkpt>
      <trkpt lat="42.52329" lon="2.22273">
        <ele>837</ele>
        <time>2019-04-20T13:24:34Z</time>
      </trkpt>
      <trkpt lat="42.52338" lon="2.2228">
        <ele>837</ele>
        <time>2019-04-20T13:24:48Z</time>
      </trkpt>
      <trkpt lat="42.52346" lon="2.22285">
        <ele>839</ele>
        <time>2019-04-20T13:24:56Z</time>
      </trkpt>
      <trkpt lat="42.52351" lon="2.22296">
        <ele>839</ele>
        <time>2019-04-20T13:25:08Z</time>
      </trkpt>
      <trkpt lat="42.52355" lon="2.22309">
        <ele>841</ele>
        <time>2019-04-20T13:25:18Z</time>
      </trkpt>
      <trkpt lat="42.52359" lon="2.2232">
        <ele>842</ele>
        <time>2019-04-20T13:25:28Z</time>
      </trkpt>
      <trkpt lat="42.52364" lon="2.2233">
        <ele>844</ele>
        <time>2019-04-20T13:25:38Z</time>
      </trkpt>
      <trkpt lat="42.52369" lon="2.22343">
        <ele>846</ele>
        <time>2019-04-20T13:25:54Z</time>
      </trkpt>
      <trkpt lat="42.52367" lon="2.2236">
        <ele>852</ele>
        <time>2019-04-20T13:26:37Z</time>
      </trkpt>
      <trkpt lat="42.52369" lon="2.22372">
        <ele>855</ele>
        <time>2019-04-20T13:26:58Z</time>
      </trkpt>
      <trkpt lat="42.52373" lon="2.22384">
        <ele>857</ele>
        <time>2019-04-20T13:27:10Z</time>
      </trkpt>
      <trkpt lat="42.52374" lon="2.22396">
        <ele>859</ele>
        <time>2019-04-20T13:27:28Z</time>
      </trkpt>
      <trkpt lat="42.52378" lon="2.22407">
        <ele>860</ele>
        <time>2019-04-20T13:27:41Z</time>
      </trkpt>
      <trkpt lat="42.52381" lon="2.22419">
        <ele>862</ele>
        <time>2019-04-20T13:28:05Z</time>
      </trkpt>
      <trkpt lat="42.52372" lon="2.22425">
        <ele>862</ele>
        <time>2019-04-20T13:28:22Z</time>
      </trkpt>
      <trkpt lat="42.52374" lon="2.22437">
        <ele>864</ele>
        <time>2019-04-20T13:28:35Z</time>
      </trkpt>
      <trkpt lat="42.52373" lon="2.22451">
        <ele>865</ele>
        <time>2019-04-20T13:28:46Z</time>
      </trkpt>
      <trkpt lat="42.52379" lon="2.22461">
        <ele>866</ele>
        <time>2019-04-20T13:28:56Z</time>
      </trkpt>
      <trkpt lat="42.52382" lon="2.22472">
        <ele>867</ele>
        <time>2019-04-20T13:29:06Z</time>
      </trkpt>
      <trkpt lat="42.52381" lon="2.22484">
        <ele>870</ele>
        <time>2019-04-20T13:29:18Z</time>
      </trkpt>
      <trkpt lat="42.52374" lon="2.22492">
        <ele>872</ele>
        <time>2019-04-20T13:29:36Z</time>
      </trkpt>
      <trkpt lat="42.52364" lon="2.22496">
        <ele>874</ele>
        <time>2019-04-20T13:29:49Z</time>
      </trkpt>
      <trkpt lat="42.52356" lon="2.22503">
        <ele>876</ele>
        <time>2019-04-20T13:29:58Z</time>
      </trkpt>
      <trkpt lat="42.52348" lon="2.2251">
        <ele>877</ele>
        <time>2019-04-20T13:30:06Z</time>
      </trkpt>
      <trkpt lat="42.52342" lon="2.22521">
        <ele>876</ele>
        <time>2019-04-20T13:30:16Z</time>
      </trkpt>
      <trkpt lat="42.52333" lon="2.22531">
        <ele>877</ele>
        <time>2019-04-20T13:30:26Z</time>
      </trkpt>
      <trkpt lat="42.52325" lon="2.22541">
        <ele>878</ele>
        <time>2019-04-20T13:30:34Z</time>
      </trkpt>
      <trkpt lat="42.52318" lon="2.2255">
        <ele>881</ele>
        <time>2019-04-20T13:30:48Z</time>
      </trkpt>
      <trkpt lat="42.52309" lon="2.22559">
        <ele>882</ele>
        <time>2019-04-20T13:31:00Z</time>
      </trkpt>
      <trkpt lat="42.52301" lon="2.22566">
        <ele>884</ele>
        <time>2019-04-20T13:31:13Z</time>
      </trkpt>
      <trkpt lat="42.52293" lon="2.22573">
        <ele>886</ele>
        <time>2019-04-20T13:31:24Z</time>
      </trkpt>
      <trkpt lat="42.52285" lon="2.2258">
        <ele>888</ele>
        <time>2019-04-20T13:31:41Z</time>
      </trkpt>
      <trkpt lat="42.52277" lon="2.22586">
        <ele>890</ele>
        <time>2019-04-20T13:31:57Z</time>
      </trkpt>
      <trkpt lat="42.52272" lon="2.22597">
        <ele>891</ele>
        <time>2019-04-20T13:32:09Z</time>
      </trkpt>
      <trkpt lat="42.52265" lon="2.22605">
        <ele>893</ele>
        <time>2019-04-20T13:32:20Z</time>
      </trkpt>
      <trkpt lat="42.5226" lon="2.22615">
        <ele>895</ele>
        <time>2019-04-20T13:32:37Z</time>
      </trkpt>
      <trkpt lat="42.52253" lon="2.22623">
        <ele>897</ele>
        <time>2019-04-20T13:32:48Z</time>
      </trkpt>
      <trkpt lat="42.52244" lon="2.22627">
        <ele>900</ele>
        <time>2019-04-20T13:32:59Z</time>
      </trkpt>
      <trkpt lat="42.52238" lon="2.22636">
        <ele>903</ele>
        <time>2019-04-20T13:33:13Z</time>
      </trkpt>
      <trkpt lat="42.52234" lon="2.22648">
        <ele>906</ele>
        <time>2019-04-20T13:33:31Z</time>
      </trkpt>
      <trkpt lat="42.52227" lon="2.22657">
        <ele>908</ele>
        <time>2019-04-20T13:33:48Z</time>
      </trkpt>
      <trkpt lat="42.52221" lon="2.22666">
        <ele>911</ele>
        <time>2019-04-20T13:34:07Z</time>
      </trkpt>
      <trkpt lat="42.52223" lon="2.22679">
        <ele>912</ele>
        <time>2019-04-20T13:34:23Z</time>
      </trkpt>
      <trkpt lat="42.52217" lon="2.22689">
        <ele>914</ele>
        <time>2019-04-20T13:34:35Z</time>
      </trkpt>
      <trkpt lat="42.52212" lon="2.227">
        <ele>916</ele>
        <time>2019-04-20T13:34:50Z</time>
      </trkpt>
      <trkpt lat="42.52208" lon="2.22711">
        <ele>920</ele>
        <time>2019-04-20T13:35:12Z</time>
      </trkpt>
      <trkpt lat="42.52208" lon="2.22724">
        <ele>924</ele>
        <time>2019-04-20T13:35:51Z</time>
      </trkpt>
      <trkpt lat="42.522" lon="2.22731">
        <ele>925</ele>
        <time>2019-04-20T13:36:11Z</time>
      </trkpt>
      <trkpt lat="42.52196" lon="2.22741">
        <ele>927</ele>
        <time>2019-04-20T13:36:31Z</time>
      </trkpt>
      <trkpt lat="42.5219" lon="2.22751">
        <ele>931</ele>
        <time>2019-04-20T13:36:54Z</time>
      </trkpt>
      <trkpt lat="42.52189" lon="2.22763">
        <ele>933</ele>
        <time>2019-04-20T13:37:07Z</time>
      </trkpt>
      <trkpt lat="42.52187" lon="2.22776">
        <ele>934</ele>
        <time>2019-04-20T13:37:26Z</time>
      </trkpt>
      <trkpt lat="42.52183" lon="2.22788">
        <ele>939</ele>
        <time>2019-04-20T13:38:04Z</time>
      </trkpt>
      <trkpt lat="42.52181" lon="2.22799">
        <ele>941</ele>
        <time>2019-04-20T13:38:20Z</time>
      </trkpt>
      <trkpt lat="42.52179" lon="2.22812">
        <ele>943</ele>
        <time>2019-04-20T13:38:33Z</time>
      </trkpt>
      <trkpt lat="42.52178" lon="2.22824">
        <ele>947</ele>
        <time>2019-04-20T13:38:50Z</time>
      </trkpt>
      <trkpt lat="42.5218" lon="2.22836">
        <ele>950</ele>
        <time>2019-04-20T13:39:05Z</time>
      </trkpt>
      <trkpt lat="42.52183" lon="2.22848">
        <ele>952</ele>
        <time>2019-04-20T13:39:21Z</time>
      </trkpt>
      <trkpt lat="42.52178" lon="2.22859">
        <ele>959</ele>
        <time>2019-04-20T13:39:55Z</time>
      </trkpt>
      <trkpt lat="42.52176" lon="2.22871">
        <ele>963</ele>
        <time>2019-04-20T13:40:14Z</time>
      </trkpt>
      <trkpt lat="42.52173" lon="2.22882">
        <ele>965</ele>
        <time>2019-04-20T13:40:31Z</time>
      </trkpt>
      <trkpt lat="42.52166" lon="2.22892">
        <ele>966</ele>
        <time>2019-04-20T13:40:40Z</time>
      </trkpt>
      <trkpt lat="42.52158" lon="2.229">
        <ele>966</ele>
        <time>2019-04-20T13:40:50Z</time>
      </trkpt>
      <trkpt lat="42.52149" lon="2.22907">
        <ele>965</ele>
        <time>2019-04-20T13:41:03Z</time>
      </trkpt>
      <trkpt lat="42.52141" lon="2.2291">
        <ele>965</ele>
        <time>2019-04-20T13:41:13Z</time>
      </trkpt>
      <trkpt lat="42.52133" lon="2.22917">
        <ele>966</ele>
        <time>2019-04-20T13:41:20Z</time>
      </trkpt>
      <trkpt lat="42.52124" lon="2.22918">
        <ele>967</ele>
        <time>2019-04-20T13:41:29Z</time>
      </trkpt>
      <trkpt lat="42.52114" lon="2.22917">
        <ele>967</ele>
        <time>2019-04-20T13:41:42Z</time>
      </trkpt>
      <trkpt lat="42.52102" lon="2.2292">
        <ele>969</ele>
        <time>2019-04-20T13:41:58Z</time>
      </trkpt>
      <trkpt lat="42.52092" lon="2.22922">
        <ele>969</ele>
        <time>2019-04-20T13:42:14Z</time>
      </trkpt>
      <trkpt lat="42.52085" lon="2.22929">
        <ele>970</ele>
        <time>2019-04-20T13:42:22Z</time>
      </trkpt>
      <trkpt lat="42.5208" lon="2.22939">
        <ele>971</ele>
        <time>2019-04-20T13:42:31Z</time>
      </trkpt>
      <trkpt lat="42.52089" lon="2.22944">
        <ele>971</ele>
        <time>2019-04-20T13:42:47Z</time>
      </trkpt>
      <trkpt lat="42.5209" lon="2.22958">
        <ele>972</ele>
        <time>2019-04-20T13:43:01Z</time>
      </trkpt>
      <trkpt lat="42.52085" lon="2.22969">
        <ele>974</ele>
        <time>2019-04-20T13:43:24Z</time>
      </trkpt>
      <trkpt lat="42.52089" lon="2.2298">
        <ele>974</ele>
        <time>2019-04-20T13:43:35Z</time>
      </trkpt>
      <trkpt lat="42.52097" lon="2.22987">
        <ele>979</ele>
        <time>2019-04-20T13:43:46Z</time>
      </trkpt>
      <trkpt lat="42.52106" lon="2.22991">
        <ele>981</ele>
        <time>2019-04-20T13:43:56Z</time>
      </trkpt>
      <trkpt lat="42.52115" lon="2.22993">
        <ele>986</ele>
        <time>2019-04-20T13:44:14Z</time>
      </trkpt>
      <trkpt lat="42.52124" lon="2.22994">
        <ele>987</ele>
        <time>2019-04-20T13:44:24Z</time>
      </trkpt>
      <trkpt lat="42.52133" lon="2.22997">
        <ele>990</ele>
        <time>2019-04-20T13:44:35Z</time>
      </trkpt>
      <trkpt lat="42.52142" lon="2.23002">
        <ele>992</ele>
        <time>2019-04-20T13:44:49Z</time>
      </trkpt>
      <trkpt lat="42.52151" lon="2.23002">
        <ele>993</ele>
        <time>2019-04-20T13:44:56Z</time>
      </trkpt>
      <trkpt lat="42.52159" lon="2.23007">
        <ele>995</ele>
        <time>2019-04-20T13:45:09Z</time>
      </trkpt>
      <trkpt lat="42.52153" lon="2.2302">
        <ele>999</ele>
        <time>2019-04-20T13:45:43Z</time>
      </trkpt>
      <trkpt lat="42.52144" lon="2.2302">
        <ele>1000</ele>
        <time>2019-04-20T13:46:03Z</time>
      </trkpt>
      <trkpt lat="42.52148" lon="2.23031">
        <ele>1007</ele>
        <time>2019-04-20T13:46:37Z</time>
      </trkpt>
      <trkpt lat="42.52157" lon="2.23033">
        <ele>1010</ele>
        <time>2019-04-20T13:46:47Z</time>
      </trkpt>
      <trkpt lat="42.52164" lon="2.23043">
        <ele>1015</ele>
        <time>2019-04-20T13:47:05Z</time>
      </trkpt>
      <trkpt lat="42.52171" lon="2.23052">
        <ele>1016</ele>
        <time>2019-04-20T13:47:17Z</time>
      </trkpt>
      <trkpt lat="42.52178" lon="2.2306">
        <ele>1016</ele>
        <time>2019-04-20T13:47:28Z</time>
      </trkpt>
      <trkpt lat="42.5218" lon="2.23073">
        <ele>1018</ele>
        <time>2019-04-20T13:47:44Z</time>
      </trkpt>
      <trkpt lat="42.52181" lon="2.23086">
        <ele>1019</ele>
        <time>2019-04-20T13:47:58Z</time>
      </trkpt>
      <trkpt lat="42.52176" lon="2.23096">
        <ele>1026</ele>
        <time>2019-04-20T13:48:28Z</time>
      </trkpt>
      <trkpt lat="42.52172" lon="2.23108">
        <ele>1029</ele>
        <time>2019-04-20T13:48:45Z</time>
      </trkpt>
      <trkpt lat="42.52173" lon="2.23121">
        <ele>1031</ele>
        <time>2019-04-20T13:48:59Z</time>
      </trkpt>
      <trkpt lat="42.5217" lon="2.23133">
        <ele>1034</ele>
        <time>2019-04-20T13:49:15Z</time>
      </trkpt>
      <trkpt lat="42.52168" lon="2.23146">
        <ele>1035</ele>
        <time>2019-04-20T13:49:27Z</time>
      </trkpt>
      <trkpt lat="42.52164" lon="2.23157">
        <ele>1036</ele>
        <time>2019-04-20T13:49:38Z</time>
      </trkpt>
      <trkpt lat="42.5216" lon="2.23169">
        <ele>1036</ele>
        <time>2019-04-20T13:49:47Z</time>
      </trkpt>
      <trkpt lat="42.52165" lon="2.23179">
        <ele>1038</ele>
        <time>2019-04-20T13:50:04Z</time>
      </trkpt>
      <trkpt lat="42.52163" lon="2.23192">
        <ele>1042</ele>
        <time>2019-04-20T13:50:32Z</time>
      </trkpt>
      <trkpt lat="42.5217" lon="2.232">
        <ele>1045</ele>
        <time>2019-04-20T13:50:52Z</time>
      </trkpt>
      <trkpt lat="42.52171" lon="2.23213">
        <ele>1045</ele>
        <time>2019-04-20T13:51:02Z</time>
      </trkpt>
      <trkpt lat="42.52172" lon="2.23225">
        <ele>1046</ele>
        <time>2019-04-20T13:51:12Z</time>
      </trkpt>
      <trkpt lat="42.52175" lon="2.23237">
        <ele>1047</ele>
        <time>2019-04-20T13:51:21Z</time>
      </trkpt>
      <trkpt lat="42.52177" lon="2.2325">
        <ele>1047</ele>
        <time>2019-04-20T13:51:32Z</time>
      </trkpt>
      <trkpt lat="42.52181" lon="2.23261">
        <ele>1048</ele>
        <time>2019-04-20T13:51:41Z</time>
      </trkpt>
      <trkpt lat="42.52181" lon="2.23273">
        <ele>1048</ele>
        <time>2019-04-20T13:51:52Z</time>
      </trkpt>
      <trkpt lat="42.52183" lon="2.23286">
        <ele>1050</ele>
        <time>2019-04-20T13:52:02Z</time>
      </trkpt>
      <trkpt lat="42.52186" lon="2.23297">
        <ele>1051</ele>
        <time>2019-04-20T13:52:11Z</time>
      </trkpt>
      <trkpt lat="42.52188" lon="2.2331">
        <ele>1052</ele>
        <time>2019-04-20T13:52:23Z</time>
      </trkpt>
      <trkpt lat="42.52189" lon="2.23323">
        <ele>1054</ele>
        <time>2019-04-20T13:52:33Z</time>
      </trkpt>
      <trkpt lat="42.52185" lon="2.23335">
        <ele>1055</ele>
        <time>2019-04-20T13:52:43Z</time>
      </trkpt>
      <trkpt lat="42.52183" lon="2.23348">
        <ele>1057</ele>
        <time>2019-04-20T13:52:53Z</time>
      </trkpt>
      <trkpt lat="42.5218" lon="2.2336">
        <ele>1057</ele>
        <time>2019-04-20T13:53:07Z</time>
      </trkpt>
      <trkpt lat="42.5218" lon="2.23373">
        <ele>1058</ele>
        <time>2019-04-20T13:53:20Z</time>
      </trkpt>
      <trkpt lat="42.52181" lon="2.23386">
        <ele>1058</ele>
        <time>2019-04-20T13:53:34Z</time>
      </trkpt>
      <trkpt lat="42.52181" lon="2.23399">
        <ele>1060</ele>
        <time>2019-04-20T13:53:46Z</time>
      </trkpt>
      <trkpt lat="42.52188" lon="2.23407">
        <ele>1061</ele>
        <time>2019-04-20T13:53:55Z</time>
      </trkpt>
      <trkpt lat="42.52185" lon="2.23419">
        <ele>1068</ele>
        <time>2019-04-20T13:54:34Z</time>
      </trkpt>
      <trkpt lat="42.52184" lon="2.23431">
        <ele>1072</ele>
        <time>2019-04-20T13:54:55Z</time>
      </trkpt>
      <trkpt lat="42.52178" lon="2.23422">
        <ele>1076</ele>
        <time>2019-04-20T13:55:32Z</time>
      </trkpt>
      <trkpt lat="42.52171" lon="2.23431">
        <ele>1082</ele>
        <time>2019-04-20T13:56:01Z</time>
      </trkpt>
      <trkpt lat="42.52171" lon="2.23443">
        <ele>1084</ele>
        <time>2019-04-20T13:56:15Z</time>
      </trkpt>
      <trkpt lat="42.5217" lon="2.23456">
        <ele>1085</ele>
        <time>2019-04-20T13:56:32Z</time>
      </trkpt>
      <trkpt lat="42.52167" lon="2.23469">
        <ele>1087</ele>
        <time>2019-04-20T13:56:46Z</time>
      </trkpt>
      <trkpt lat="42.52166" lon="2.23481">
        <ele>1088</ele>
        <time>2019-04-20T13:56:57Z</time>
      </trkpt>
      <trkpt lat="42.52166" lon="2.23494">
        <ele>1090</ele>
        <time>2019-04-20T13:57:06Z</time>
      </trkpt>
      <trkpt lat="42.52167" lon="2.23507">
        <ele>1090</ele>
        <time>2019-04-20T13:57:16Z</time>
      </trkpt>
      <trkpt lat="42.52169" lon="2.2352">
        <ele>1091</ele>
        <time>2019-04-20T13:57:27Z</time>
      </trkpt>
      <trkpt lat="42.52166" lon="2.23532">
        <ele>1093</ele>
        <time>2019-04-20T13:57:40Z</time>
      </trkpt>
      <trkpt lat="42.52168" lon="2.23544">
        <ele>1095</ele>
        <time>2019-04-20T13:57:52Z</time>
      </trkpt>
      <trkpt lat="42.52165" lon="2.23556">
        <ele>1097</ele>
        <time>2019-04-20T13:58:06Z</time>
      </trkpt>
      <trkpt lat="42.52157" lon="2.23563">
        <ele>1098</ele>
        <time>2019-04-20T13:58:19Z</time>
      </trkpt>
      <trkpt lat="42.52157" lon="2.23576">
        <ele>1100</ele>
        <time>2019-04-20T13:58:41Z</time>
      </trkpt>
      <trkpt lat="42.52156" lon="2.23588">
        <ele>1102</ele>
        <time>2019-04-20T13:58:54Z</time>
      </trkpt>
      <trkpt lat="42.52156" lon="2.23601">
        <ele>1104</ele>
        <time>2019-04-20T13:59:05Z</time>
      </trkpt>
      <trkpt lat="42.52157" lon="2.23613">
        <ele>1106</ele>
        <time>2019-04-20T13:59:16Z</time>
      </trkpt>
      <trkpt lat="42.52153" lon="2.23624">
        <ele>1108</ele>
        <time>2019-04-20T13:59:32Z</time>
      </trkpt>
      <trkpt lat="42.52148" lon="2.23635">
        <ele>1111</ele>
        <time>2019-04-20T13:59:47Z</time>
      </trkpt>
      <trkpt lat="42.52143" lon="2.23646">
        <ele>1113</ele>
        <time>2019-04-20T14:00:00Z</time>
      </trkpt>
      <trkpt lat="42.52141" lon="2.23658">
        <ele>1115</ele>
        <time>2019-04-20T14:00:14Z</time>
      </trkpt>
      <trkpt lat="42.52137" lon="2.2367">
        <ele>1118</ele>
        <time>2019-04-20T14:00:26Z</time>
      </trkpt>
      <trkpt lat="42.52132" lon="2.23683">
        <ele>1119</ele>
        <time>2019-04-20T14:00:57Z</time>
      </trkpt>
      <trkpt lat="42.52122" lon="2.23693">
        <ele>1121</ele>
        <time>2019-04-20T14:01:19Z</time>
      </trkpt>
      <trkpt lat="42.52115" lon="2.23701">
        <ele>1121</ele>
        <time>2019-04-20T14:01:27Z</time>
      </trkpt>
      <trkpt lat="42.52107" lon="2.23707">
        <ele>1122</ele>
        <time>2019-04-20T14:01:38Z</time>
      </trkpt>
      <trkpt lat="42.52099" lon="2.23715">
        <ele>1122</ele>
        <time>2019-04-20T14:01:46Z</time>
      </trkpt>
      <trkpt lat="42.52092" lon="2.23722">
        <ele>1122</ele>
        <time>2019-04-20T14:01:53Z</time>
      </trkpt>
      <trkpt lat="42.52089" lon="2.23734">
        <ele>1122</ele>
        <time>2019-04-20T14:02:04Z</time>
      </trkpt>
      <trkpt lat="42.52099" lon="2.23735">
        <ele>1122</ele>
        <time>2019-04-20T14:02:09Z</time>
      </trkpt>
      <trkpt lat="42.52107" lon="2.23743">
        <ele>1121</ele>
        <time>2019-04-20T14:02:15Z</time>
      </trkpt>
      <trkpt lat="42.52112" lon="2.23754">
        <ele>1119</ele>
        <time>2019-04-20T14:02:25Z</time>
      </trkpt>
      <trkpt lat="42.52115" lon="2.23766">
        <ele>1120</ele>
        <time>2019-04-20T14:02:32Z</time>
      </trkpt>
      <trkpt lat="42.52117" lon="2.23779">
        <ele>1120</ele>
        <time>2019-04-20T14:02:39Z</time>
      </trkpt>
      <trkpt lat="42.52118" lon="2.23792">
        <ele>1121</ele>
        <time>2019-04-20T14:02:49Z</time>
      </trkpt>
      <trkpt lat="42.52126" lon="2.23797">
        <ele>1122</ele>
        <time>2019-04-20T14:02:55Z</time>
      </trkpt>
      <trkpt lat="42.52133" lon="2.23805">
        <ele>1122</ele>
        <time>2019-04-20T14:03:08Z</time>
      </trkpt>
      <trkpt lat="42.52141" lon="2.23812">
        <ele>1121</ele>
        <time>2019-04-20T14:03:19Z</time>
      </trkpt>
      <trkpt lat="42.52149" lon="2.23819">
        <ele>1121</ele>
        <time>2019-04-20T14:03:31Z</time>
      </trkpt>
      <trkpt lat="42.52156" lon="2.23827">
        <ele>1122</ele>
        <time>2019-04-20T14:03:41Z</time>
      </trkpt>
      <trkpt lat="42.52164" lon="2.23834">
        <ele>1123</ele>
        <time>2019-04-20T14:03:54Z</time>
      </trkpt>
      <trkpt lat="42.5217" lon="2.23844">
        <ele>1123</ele>
        <time>2019-04-20T14:04:08Z</time>
      </trkpt>
      <trkpt lat="42.52174" lon="2.23855">
        <ele>1124</ele>
        <time>2019-04-20T14:04:18Z</time>
      </trkpt>
      <trkpt lat="42.52177" lon="2.23867">
        <ele>1125</ele>
        <time>2019-04-20T14:04:27Z</time>
      </trkpt>
      <trkpt lat="42.52176" lon="2.2388">
        <ele>1127</ele>
        <time>2019-04-20T14:04:40Z</time>
      </trkpt>
      <trkpt lat="42.52182" lon="2.23891">
        <ele>1127</ele>
        <time>2019-04-20T14:04:49Z</time>
      </trkpt>
      <trkpt lat="42.52187" lon="2.23902">
        <ele>1128</ele>
        <time>2019-04-20T14:04:58Z</time>
      </trkpt>
      <trkpt lat="42.5219" lon="2.23914">
        <ele>1128</ele>
        <time>2019-04-20T14:05:08Z</time>
      </trkpt>
      <trkpt lat="42.52197" lon="2.23924">
        <ele>1131</ele>
        <time>2019-04-20T14:05:46Z</time>
      </trkpt>
      <trkpt lat="42.52207" lon="2.23926">
        <ele>1131</ele>
        <time>2019-04-20T14:05:52Z</time>
      </trkpt>
      <trkpt lat="42.5221" lon="2.23915">
        <ele>1130</ele>
        <time>2019-04-20T14:06:18Z</time>
      </trkpt>
      <trkpt lat="42.522" lon="2.23917">
        <ele>1131</ele>
        <time>2019-04-20T14:07:16Z</time>
      </trkpt>
      <trkpt lat="42.52191" lon="2.23918">
        <ele>1132</ele>
        <time>2019-04-20T14:07:24Z</time>
      </trkpt>
      <trkpt lat="42.52181" lon="2.23918">
        <ele>1132</ele>
        <time>2019-04-20T14:07:34Z</time>
      </trkpt>
      <trkpt lat="42.52171" lon="2.23919">
        <ele>1133</ele>
        <time>2019-04-20T14:08:10Z</time>
      </trkpt>
      <trkpt lat="42.52162" lon="2.23924">
        <ele>1134</ele>
        <time>2019-04-20T14:08:32Z</time>
      </trkpt>
      <trkpt lat="42.52153" lon="2.23929">
        <ele>1135</ele>
        <time>2019-04-20T14:08:42Z</time>
      </trkpt>
      <trkpt lat="42.52145" lon="2.23934">
        <ele>1136</ele>
        <time>2019-04-20T14:09:00Z</time>
      </trkpt>
      <trkpt lat="42.52135" lon="2.23931">
        <ele>1139</ele>
        <time>2019-04-20T14:09:18Z</time>
      </trkpt>
      <trkpt lat="42.52126" lon="2.2393">
        <ele>1142</ele>
        <time>2019-04-20T14:09:34Z</time>
      </trkpt>
      <trkpt lat="42.52118" lon="2.23936">
        <ele>1146</ele>
        <time>2019-04-20T14:09:52Z</time>
      </trkpt>
      <trkpt lat="42.52109" lon="2.23944">
        <ele>1148</ele>
        <time>2019-04-20T14:10:12Z</time>
      </trkpt>
      <trkpt lat="42.52104" lon="2.23957">
        <ele>1149</ele>
        <time>2019-04-20T14:10:24Z</time>
      </trkpt>
      <trkpt lat="42.52097" lon="2.23966">
        <ele>1150</ele>
        <time>2019-04-20T14:10:40Z</time>
      </trkpt>
      <trkpt lat="42.52096" lon="2.23979">
        <ele>1152</ele>
        <time>2019-04-20T14:10:48Z</time>
      </trkpt>
      <trkpt lat="42.52095" lon="2.23991">
        <ele>1153</ele>
        <time>2019-04-20T14:11:00Z</time>
      </trkpt>
      <trkpt lat="42.5209" lon="2.24003">
        <ele>1153</ele>
        <time>2019-04-20T14:11:10Z</time>
      </trkpt>
      <trkpt lat="42.52091" lon="2.24017">
        <ele>1152</ele>
        <time>2019-04-20T14:11:20Z</time>
      </trkpt>
      <trkpt lat="42.52086" lon="2.24028">
        <ele>1153</ele>
        <time>2019-04-20T14:11:30Z</time>
      </trkpt>
      <trkpt lat="42.52079" lon="2.24037">
        <ele>1153</ele>
        <time>2019-04-20T14:11:40Z</time>
      </trkpt>
      <trkpt lat="42.52082" lon="2.2405">
        <ele>1153</ele>
        <time>2019-04-20T14:12:08Z</time>
      </trkpt>
      <trkpt lat="42.52078" lon="2.24065">
        <ele>1152</ele>
        <time>2019-04-20T14:12:44Z</time>
      </trkpt>
      <trkpt lat="42.5207" lon="2.24057">
        <ele>1153</ele>
        <time>2019-04-20T14:12:50Z</time>
      </trkpt>
      <trkpt lat="42.52075" lon="2.24044">
        <ele>1153</ele>
        <time>2019-04-20T14:12:56Z</time>
      </trkpt>
      <trkpt lat="42.52066" lon="2.24041">
        <ele>1154</ele>
        <time>2019-04-20T14:13:08Z</time>
      </trkpt>
      <trkpt lat="42.52078" lon="2.24032">
        <ele>1155</ele>
        <time>2019-04-20T14:13:18Z</time>
      </trkpt>
      <trkpt lat="42.52088" lon="2.24024">
        <ele>1154</ele>
        <time>2019-04-20T14:13:24Z</time>
      </trkpt>
      <trkpt lat="42.52095" lon="2.24016">
        <ele>1154</ele>
        <time>2019-04-20T14:13:33Z</time>
      </trkpt>
      <trkpt lat="42.52094" lon="2.24003">
        <ele>1155</ele>
        <time>2019-04-20T14:13:42Z</time>
      </trkpt>
      <trkpt lat="42.52097" lon="2.2399">
        <ele>1154</ele>
        <time>2019-04-20T14:13:51Z</time>
      </trkpt>
      <trkpt lat="42.52101" lon="2.23979">
        <ele>1156</ele>
        <time>2019-04-20T14:14:01Z</time>
      </trkpt>
      <trkpt lat="42.52104" lon="2.23967">
        <ele>1156</ele>
        <time>2019-04-20T14:14:11Z</time>
      </trkpt>
      <trkpt lat="42.52109" lon="2.23956">
        <ele>1157</ele>
        <time>2019-04-20T14:14:20Z</time>
      </trkpt>
      <trkpt lat="42.52115" lon="2.23945">
        <ele>1156</ele>
        <time>2019-04-20T14:14:29Z</time>
      </trkpt>
      <trkpt lat="42.5212" lon="2.23936">
        <ele>1154</ele>
        <time>2019-04-20T14:14:41Z</time>
      </trkpt>
      <trkpt lat="42.52128" lon="2.2393">
        <ele>1153</ele>
        <time>2019-04-20T14:14:56Z</time>
      </trkpt>
      <trkpt lat="42.52138" lon="2.23933">
        <ele>1151</ele>
        <time>2019-04-20T14:15:09Z</time>
      </trkpt>
      <trkpt lat="42.52146" lon="2.23937">
        <ele>1149</ele>
        <time>2019-04-20T14:15:27Z</time>
      </trkpt>
      <trkpt lat="42.52155" lon="2.23931">
        <ele>1148</ele>
        <time>2019-04-20T14:15:35Z</time>
      </trkpt>
      <trkpt lat="42.52164" lon="2.23925">
        <ele>1148</ele>
        <time>2019-04-20T14:15:41Z</time>
      </trkpt>
      <trkpt lat="42.52173" lon="2.23923">
        <ele>1145</ele>
        <time>2019-04-20T14:15:54Z</time>
      </trkpt>
      <trkpt lat="42.52176" lon="2.23911">
        <ele>1144</ele>
        <time>2019-04-20T14:16:36Z</time>
      </trkpt>
      <trkpt lat="42.52184" lon="2.23919">
        <ele>1142</ele>
        <time>2019-04-20T14:16:45Z</time>
      </trkpt>
      <trkpt lat="42.52183" lon="2.23931">
        <ele>1139</ele>
        <time>2019-04-20T14:16:52Z</time>
      </trkpt>
      <trkpt lat="42.52179" lon="2.23943">
        <ele>1138</ele>
        <time>2019-04-20T14:17:00Z</time>
      </trkpt>
      <trkpt lat="42.52174" lon="2.23953">
        <ele>1137</ele>
        <time>2019-04-20T14:17:09Z</time>
      </trkpt>
      <trkpt lat="42.52165" lon="2.23958">
        <ele>1135</ele>
        <time>2019-04-20T14:17:18Z</time>
      </trkpt>
      <trkpt lat="42.52158" lon="2.23968">
        <ele>1134</ele>
        <time>2019-04-20T14:17:26Z</time>
      </trkpt>
      <trkpt lat="42.5215" lon="2.23975">
        <ele>1133</ele>
        <time>2019-04-20T14:17:35Z</time>
      </trkpt>
      <trkpt lat="42.52152" lon="2.23987">
        <ele>1132</ele>
        <time>2019-04-20T14:17:41Z</time>
      </trkpt>
      <trkpt lat="42.5215" lon="2.23999">
        <ele>1132</ele>
        <time>2019-04-20T14:17:51Z</time>
      </trkpt>
      <trkpt lat="42.52155" lon="2.24011">
        <ele>1130</ele>
        <time>2019-04-20T14:17:58Z</time>
      </trkpt>
      <trkpt lat="42.52156" lon="2.24023">
        <ele>1130</ele>
        <time>2019-04-20T14:18:04Z</time>
      </trkpt>
      <trkpt lat="42.52159" lon="2.24036">
        <ele>1129</ele>
        <time>2019-04-20T14:18:14Z</time>
      </trkpt>
      <trkpt lat="42.52165" lon="2.24045">
        <ele>1123</ele>
        <time>2019-04-20T14:18:40Z</time>
      </trkpt>
      <trkpt lat="42.5216" lon="2.24056">
        <ele>1123</ele>
        <time>2019-04-20T14:18:48Z</time>
      </trkpt>
      <trkpt lat="42.52157" lon="2.24068">
        <ele>1123</ele>
        <time>2019-04-20T14:18:59Z</time>
      </trkpt>
      <trkpt lat="42.52162" lon="2.24079">
        <ele>1122</ele>
        <time>2019-04-20T14:19:10Z</time>
      </trkpt>
      <trkpt lat="42.52169" lon="2.24087">
        <ele>1120</ele>
        <time>2019-04-20T14:19:19Z</time>
      </trkpt>
      <trkpt lat="42.52178" lon="2.24091">
        <ele>1120</ele>
        <time>2019-04-20T14:19:29Z</time>
      </trkpt>
      <trkpt lat="42.52184" lon="2.24102">
        <ele>1120</ele>
        <time>2019-04-20T14:19:42Z</time>
      </trkpt>
      <trkpt lat="42.52182" lon="2.24115">
        <ele>1118</ele>
        <time>2019-04-20T14:20:08Z</time>
      </trkpt>
      <trkpt lat="42.52189" lon="2.24124">
        <ele>1118</ele>
        <time>2019-04-20T14:20:16Z</time>
      </trkpt>
      <trkpt lat="42.52197" lon="2.24117">
        <ele>1116</ele>
        <time>2019-04-20T14:20:32Z</time>
      </trkpt>
      <trkpt lat="42.52207" lon="2.24122">
        <ele>1116</ele>
        <time>2019-04-20T14:20:39Z</time>
      </trkpt>
      <trkpt lat="42.52216" lon="2.24125">
        <ele>1116</ele>
        <time>2019-04-20T14:20:46Z</time>
      </trkpt>
      <trkpt lat="42.52226" lon="2.24124">
        <ele>1115</ele>
        <time>2019-04-20T14:21:02Z</time>
      </trkpt>
      <trkpt lat="42.52235" lon="2.24123">
        <ele>1115</ele>
        <time>2019-04-20T14:21:16Z</time>
      </trkpt>
      <trkpt lat="42.52243" lon="2.24118">
        <ele>1112</ele>
        <time>2019-04-20T14:21:30Z</time>
      </trkpt>
      <trkpt lat="42.52252" lon="2.24119">
        <ele>1112</ele>
        <time>2019-04-20T14:21:40Z</time>
      </trkpt>
      <trkpt lat="42.52261" lon="2.24122">
        <ele>1111</ele>
        <time>2019-04-20T14:21:50Z</time>
      </trkpt>
      <trkpt lat="42.5227" lon="2.24122">
        <ele>1109</ele>
        <time>2019-04-20T14:22:00Z</time>
      </trkpt>
      <trkpt lat="42.52279" lon="2.24126">
        <ele>1107</ele>
        <time>2019-04-20T14:22:11Z</time>
      </trkpt>
      <trkpt lat="42.52287" lon="2.24134">
        <ele>1106</ele>
        <time>2019-04-20T14:22:20Z</time>
      </trkpt>
      <trkpt lat="42.52295" lon="2.24139">
        <ele>1104</ele>
        <time>2019-04-20T14:22:30Z</time>
      </trkpt>
      <trkpt lat="42.52304" lon="2.24144">
        <ele>1103</ele>
        <time>2019-04-20T14:22:39Z</time>
      </trkpt>
      <trkpt lat="42.52311" lon="2.24152">
        <ele>1102</ele>
        <time>2019-04-20T14:22:48Z</time>
      </trkpt>
      <trkpt lat="42.52319" lon="2.24161">
        <ele>1101</ele>
        <time>2019-04-20T14:22:57Z</time>
      </trkpt>
      <trkpt lat="42.52323" lon="2.24173">
        <ele>1098</ele>
        <time>2019-04-20T14:23:06Z</time>
      </trkpt>
      <trkpt lat="42.52328" lon="2.24184">
        <ele>1096</ele>
        <time>2019-04-20T14:23:15Z</time>
      </trkpt>
      <trkpt lat="42.52332" lon="2.24196">
        <ele>1093</ele>
        <time>2019-04-20T14:23:28Z</time>
      </trkpt>
      <trkpt lat="42.52335" lon="2.24208">
        <ele>1090</ele>
        <time>2019-04-20T14:23:40Z</time>
      </trkpt>
      <trkpt lat="42.52341" lon="2.24219">
        <ele>1088</ele>
        <time>2019-04-20T14:23:52Z</time>
      </trkpt>
      <trkpt lat="42.52346" lon="2.24229">
        <ele>1084</ele>
        <time>2019-04-20T14:24:03Z</time>
      </trkpt>
      <trkpt lat="42.52351" lon="2.2424">
        <ele>1082</ele>
        <time>2019-04-20T14:24:13Z</time>
      </trkpt>
      <trkpt lat="42.52357" lon="2.2425">
        <ele>1078</ele>
        <time>2019-04-20T14:24:34Z</time>
      </trkpt>
      <trkpt lat="42.52362" lon="2.2426">
        <ele>1076</ele>
        <time>2019-04-20T14:24:43Z</time>
      </trkpt>
      <trkpt lat="42.52367" lon="2.24271">
        <ele>1076</ele>
        <time>2019-04-20T14:24:52Z</time>
      </trkpt>
      <trkpt lat="42.52369" lon="2.24284">
        <ele>1075</ele>
        <time>2019-04-20T14:25:00Z</time>
      </trkpt>
      <trkpt lat="42.52373" lon="2.24296">
        <ele>1073</ele>
        <time>2019-04-20T14:25:06Z</time>
      </trkpt>
      <trkpt lat="42.52378" lon="2.24307">
        <ele>1072</ele>
        <time>2019-04-20T14:25:14Z</time>
      </trkpt>
      <trkpt lat="42.52382" lon="2.24319">
        <ele>1071</ele>
        <time>2019-04-20T14:25:24Z</time>
      </trkpt>
      <trkpt lat="42.52385" lon="2.2433">
        <ele>1069</ele>
        <time>2019-04-20T14:25:32Z</time>
      </trkpt>
      <trkpt lat="42.52388" lon="2.24343">
        <ele>1066</ele>
        <time>2019-04-20T14:25:43Z</time>
      </trkpt>
      <trkpt lat="42.52391" lon="2.24355">
        <ele>1063</ele>
        <time>2019-04-20T14:25:55Z</time>
      </trkpt>
      <trkpt lat="42.52398" lon="2.24364">
        <ele>1062</ele>
        <time>2019-04-20T14:26:03Z</time>
      </trkpt>
      <trkpt lat="42.52401" lon="2.24376">
        <ele>1060</ele>
        <time>2019-04-20T14:26:26Z</time>
      </trkpt>
      <trkpt lat="42.52405" lon="2.24388">
        <ele>1058</ele>
        <time>2019-04-20T14:26:34Z</time>
      </trkpt>
      <trkpt lat="42.52406" lon="2.24375">
        <ele>1054</ele>
        <time>2019-04-20T14:26:59Z</time>
      </trkpt>
      <trkpt lat="42.52405" lon="2.24361">
        <ele>1054</ele>
        <time>2019-04-20T14:27:10Z</time>
      </trkpt>
      <trkpt lat="42.52402" lon="2.24349">
        <ele>1054</ele>
        <time>2019-04-20T14:27:17Z</time>
      </trkpt>
      <trkpt lat="42.52402" lon="2.24335">
        <ele>1054</ele>
        <time>2019-04-20T14:27:27Z</time>
      </trkpt>
      <trkpt lat="42.52401" lon="2.24323">
        <ele>1053</ele>
        <time>2019-04-20T14:27:34Z</time>
      </trkpt>
      <trkpt lat="42.52401" lon="2.2431">
        <ele>1052</ele>
        <time>2019-04-20T14:27:44Z</time>
      </trkpt>
      <trkpt lat="42.524" lon="2.24297">
        <ele>1051</ele>
        <time>2019-04-20T14:27:53Z</time>
      </trkpt>
      <trkpt lat="42.52407" lon="2.24287">
        <ele>1050</ele>
        <time>2019-04-20T14:28:02Z</time>
      </trkpt>
      <trkpt lat="42.52409" lon="2.24275">
        <ele>1049</ele>
        <time>2019-04-20T14:28:09Z</time>
      </trkpt>
      <trkpt lat="42.52406" lon="2.24263">
        <ele>1049</ele>
        <time>2019-04-20T14:28:15Z</time>
      </trkpt>
      <trkpt lat="42.52406" lon="2.2425">
        <ele>1049</ele>
        <time>2019-04-20T14:28:24Z</time>
      </trkpt>
      <trkpt lat="42.52404" lon="2.24237">
        <ele>1048</ele>
        <time>2019-04-20T14:28:33Z</time>
      </trkpt>
      <trkpt lat="42.52403" lon="2.24224">
        <ele>1048</ele>
        <time>2019-04-20T14:28:40Z</time>
      </trkpt>
      <trkpt lat="42.52403" lon="2.24211">
        <ele>1047</ele>
        <time>2019-04-20T14:28:47Z</time>
      </trkpt>
      <trkpt lat="42.52408" lon="2.24189">
        <ele>1045</ele>
        <time>2019-04-20T14:29:03Z</time>
      </trkpt>
      <trkpt lat="42.52414" lon="2.24199">
        <ele>1041</ele>
        <time>2019-04-20T14:29:19Z</time>
      </trkpt>
      <trkpt lat="42.52415" lon="2.24213">
        <ele>1041</ele>
        <time>2019-04-20T14:29:25Z</time>
      </trkpt>
      <trkpt lat="42.52414" lon="2.24226">
        <ele>1039</ele>
        <time>2019-04-20T14:29:33Z</time>
      </trkpt>
      <trkpt lat="42.52417" lon="2.24239">
        <ele>1037</ele>
        <time>2019-04-20T14:29:45Z</time>
      </trkpt>
      <trkpt lat="42.52423" lon="2.24249">
        <ele>1036</ele>
        <time>2019-04-20T14:29:52Z</time>
      </trkpt>
      <trkpt lat="42.52428" lon="2.24259">
        <ele>1033</ele>
        <time>2019-04-20T14:30:04Z</time>
      </trkpt>
      <trkpt lat="42.52434" lon="2.24268">
        <ele>1033</ele>
        <time>2019-04-20T14:30:11Z</time>
      </trkpt>
      <trkpt lat="42.52435" lon="2.24281">
        <ele>1031</ele>
        <time>2019-04-20T14:30:23Z</time>
      </trkpt>
      <trkpt lat="42.52437" lon="2.24295">
        <ele>1030</ele>
        <time>2019-04-20T14:30:31Z</time>
      </trkpt>
      <trkpt lat="42.52443" lon="2.24305">
        <ele>1028</ele>
        <time>2019-04-20T14:30:40Z</time>
      </trkpt>
      <trkpt lat="42.52446" lon="2.24317">
        <ele>1027</ele>
        <time>2019-04-20T14:30:52Z</time>
      </trkpt>
      <trkpt lat="42.52454" lon="2.24323">
        <ele>1026</ele>
        <time>2019-04-20T14:31:03Z</time>
      </trkpt>
      <trkpt lat="42.5246" lon="2.24333">
        <ele>1024</ele>
        <time>2019-04-20T14:31:11Z</time>
      </trkpt>
      <trkpt lat="42.52466" lon="2.24343">
        <ele>1023</ele>
        <time>2019-04-20T14:31:18Z</time>
      </trkpt>
      <trkpt lat="42.52471" lon="2.24354">
        <ele>1023</ele>
        <time>2019-04-20T14:31:25Z</time>
      </trkpt>
      <trkpt lat="42.52476" lon="2.24364">
        <ele>1022</ele>
        <time>2019-04-20T14:31:38Z</time>
      </trkpt>
      <trkpt lat="42.52481" lon="2.24376">
        <ele>1020</ele>
        <time>2019-04-20T14:31:44Z</time>
      </trkpt>
      <trkpt lat="42.52486" lon="2.24387">
        <ele>1017</ele>
        <time>2019-04-20T14:31:54Z</time>
      </trkpt>
      <trkpt lat="42.52489" lon="2.244">
        <ele>1015</ele>
        <time>2019-04-20T14:32:04Z</time>
      </trkpt>
      <trkpt lat="42.52493" lon="2.24411">
        <ele>1014</ele>
        <time>2019-04-20T14:32:13Z</time>
      </trkpt>
      <trkpt lat="42.52495" lon="2.24424">
        <ele>1010</ele>
        <time>2019-04-20T14:32:30Z</time>
      </trkpt>
      <trkpt lat="42.52502" lon="2.24432">
        <ele>1008</ele>
        <time>2019-04-20T14:32:38Z</time>
      </trkpt>
      <trkpt lat="42.52503" lon="2.24445">
        <ele>1006</ele>
        <time>2019-04-20T14:32:46Z</time>
      </trkpt>
      <trkpt lat="42.52504" lon="2.24458">
        <ele>1004</ele>
        <time>2019-04-20T14:32:54Z</time>
      </trkpt>
      <trkpt lat="42.52512" lon="2.24467">
        <ele>1002</ele>
        <time>2019-04-20T14:33:02Z</time>
      </trkpt>
      <trkpt lat="42.52518" lon="2.24477">
        <ele>1001</ele>
        <time>2019-04-20T14:33:10Z</time>
      </trkpt>
      <trkpt lat="42.52517" lon="2.24464">
        <ele>995</ele>
        <time>2019-04-20T14:33:32Z</time>
      </trkpt>
      <trkpt lat="42.52514" lon="2.24452">
        <ele>994</ele>
        <time>2019-04-20T14:33:38Z</time>
      </trkpt>
      <trkpt lat="42.5252" lon="2.24442">
        <ele>993</ele>
        <time>2019-04-20T14:33:46Z</time>
      </trkpt>
      <trkpt lat="42.52518" lon="2.24429">
        <ele>992</ele>
        <time>2019-04-20T14:33:54Z</time>
      </trkpt>
      <trkpt lat="42.52508" lon="2.24426">
        <ele>991</ele>
        <time>2019-04-20T14:34:26Z</time>
      </trkpt>
      <trkpt lat="42.52516" lon="2.24421">
        <ele>984</ele>
        <time>2019-04-20T14:34:38Z</time>
      </trkpt>
      <trkpt lat="42.52526" lon="2.24427">
        <ele>982</ele>
        <time>2019-04-20T14:34:44Z</time>
      </trkpt>
      <trkpt lat="42.52525" lon="2.2444">
        <ele>979</ele>
        <time>2019-04-20T14:34:56Z</time>
      </trkpt>
      <trkpt lat="42.52529" lon="2.24451">
        <ele>979</ele>
        <time>2019-04-20T14:35:05Z</time>
      </trkpt>
      <trkpt lat="42.52534" lon="2.24462">
        <ele>978</ele>
        <time>2019-04-20T14:35:13Z</time>
      </trkpt>
      <trkpt lat="42.52542" lon="2.2447">
        <ele>973</ele>
        <time>2019-04-20T14:35:35Z</time>
      </trkpt>
      <trkpt lat="42.52548" lon="2.2448">
        <ele>972</ele>
        <time>2019-04-20T14:35:45Z</time>
      </trkpt>
      <trkpt lat="42.52553" lon="2.24491">
        <ele>969</ele>
        <time>2019-04-20T14:35:57Z</time>
      </trkpt>
      <trkpt lat="42.52562" lon="2.24495">
        <ele>968</ele>
        <time>2019-04-20T14:36:11Z</time>
      </trkpt>
      <trkpt lat="42.52568" lon="2.24485">
        <ele>966</ele>
        <time>2019-04-20T14:36:21Z</time>
      </trkpt>
      <trkpt lat="42.52575" lon="2.24476">
        <ele>963</ele>
        <time>2019-04-20T14:36:34Z</time>
      </trkpt>
      <trkpt lat="42.52575" lon="2.24463">
        <ele>962</ele>
        <time>2019-04-20T14:36:47Z</time>
      </trkpt>
      <trkpt lat="42.52584" lon="2.24467">
        <ele>953</ele>
        <time>2019-04-20T14:37:19Z</time>
      </trkpt>
      <trkpt lat="42.52583" lon="2.24448">
        <ele>951</ele>
        <time>2019-04-20T14:37:50Z</time>
      </trkpt>
      <trkpt lat="42.5259" lon="2.24434">
        <ele>950</ele>
        <time>2019-04-20T14:38:20Z</time>
      </trkpt>
      <trkpt lat="42.52593" lon="2.24421">
        <ele>949</ele>
        <time>2019-04-20T14:38:30Z</time>
      </trkpt>
      <trkpt lat="42.52599" lon="2.24411">
        <ele>949</ele>
        <time>2019-04-20T14:38:41Z</time>
      </trkpt>
      <trkpt lat="42.52598" lon="2.24397">
        <ele>946</ele>
        <time>2019-04-20T14:38:49Z</time>
      </trkpt>
      <trkpt lat="42.52596" lon="2.24386">
        <ele>947</ele>
        <time>2019-04-20T14:38:58Z</time>
      </trkpt>
      <trkpt lat="42.52603" lon="2.24378">
        <ele>945</ele>
        <time>2019-04-20T14:39:12Z</time>
      </trkpt>
      <trkpt lat="42.52612" lon="2.24375">
        <ele>940</ele>
        <time>2019-04-20T14:39:29Z</time>
      </trkpt>
      <trkpt lat="42.52612" lon="2.24352">
        <ele>930</ele>
        <time>2019-04-20T14:40:00Z</time>
      </trkpt>
      <trkpt lat="42.52619" lon="2.24346">
        <ele>930</ele>
        <time>2019-04-20T14:40:14Z</time>
      </trkpt>
      <trkpt lat="42.52615" lon="2.24338">
        <ele>925</ele>
        <time>2019-04-20T14:40:43Z</time>
      </trkpt>
      <trkpt lat="42.52609" lon="2.24329">
        <ele>923</ele>
        <time>2019-04-20T14:40:49Z</time>
      </trkpt>
      <trkpt lat="42.52618" lon="2.24328">
        <ele>920</ele>
        <time>2019-04-20T14:41:23Z</time>
      </trkpt>
      <trkpt lat="42.52627" lon="2.24326">
        <ele>918</ele>
        <time>2019-04-20T14:41:38Z</time>
      </trkpt>
      <trkpt lat="42.52626" lon="2.24313">
        <ele>911</ele>
        <time>2019-04-20T14:41:56Z</time>
      </trkpt>
      <trkpt lat="42.52627" lon="2.243">
        <ele>907</ele>
        <time>2019-04-20T14:42:22Z</time>
      </trkpt>
      <trkpt lat="42.52627" lon="2.24287">
        <ele>906</ele>
        <time>2019-04-20T14:42:30Z</time>
      </trkpt>
      <trkpt lat="42.52626" lon="2.24276">
        <ele>889</ele>
        <time>2019-04-20T14:43:44Z</time>
      </trkpt>
      <trkpt lat="42.52635" lon="2.2427">
        <ele>888</ele>
        <time>2019-04-20T14:44:19Z</time>
      </trkpt>
      <trkpt lat="42.52632" lon="2.24258">
        <ele>881</ele>
        <time>2019-04-20T14:44:45Z</time>
      </trkpt>
      <trkpt lat="42.52631" lon="2.24246">
        <ele>881</ele>
        <time>2019-04-20T14:44:57Z</time>
      </trkpt>
      <trkpt lat="42.52638" lon="2.24254">
        <ele>877</ele>
        <time>2019-04-20T14:45:10Z</time>
      </trkpt>
      <trkpt lat="42.52633" lon="2.24243">
        <ele>874</ele>
        <time>2019-04-20T14:45:30Z</time>
      </trkpt>
      <trkpt lat="42.52643" lon="2.24243">
        <ele>870</ele>
        <time>2019-04-20T14:45:48Z</time>
      </trkpt>
      <trkpt lat="42.52641" lon="2.24231">
        <ele>869</ele>
        <time>2019-04-20T14:46:07Z</time>
      </trkpt>
      <trkpt lat="42.52651" lon="2.24228">
        <ele>862</ele>
        <time>2019-04-20T14:46:33Z</time>
      </trkpt>
      <trkpt lat="42.52658" lon="2.24221">
        <ele>859</ele>
        <time>2019-04-20T14:47:07Z</time>
      </trkpt>
      <trkpt lat="42.52668" lon="2.2422">
        <ele>855</ele>
        <time>2019-04-20T14:47:19Z</time>
      </trkpt>
      <trkpt lat="42.52669" lon="2.24234">
        <ele>852</ele>
        <time>2019-04-20T14:47:38Z</time>
      </trkpt>
      <trkpt lat="42.52677" lon="2.24227">
        <ele>849</ele>
        <time>2019-04-20T14:47:59Z</time>
      </trkpt>
      <trkpt lat="42.52685" lon="2.24225">
        <ele>845</ele>
        <time>2019-04-20T14:48:08Z</time>
      </trkpt>
      <trkpt lat="42.52693" lon="2.24216">
        <ele>841</ele>
        <time>2019-04-20T14:48:17Z</time>
      </trkpt>
      <trkpt lat="42.527" lon="2.24224">
        <ele>834</ele>
        <time>2019-04-20T14:48:42Z</time>
      </trkpt>
      <trkpt lat="42.5269" lon="2.24229">
        <ele>826</ele>
        <time>2019-04-20T14:49:14Z</time>
      </trkpt>
      <trkpt lat="42.52699" lon="2.2422">
        <ele>814</ele>
        <time>2019-04-20T15:06:42Z</time>
      </trkpt>
      <trkpt lat="42.52706" lon="2.24214">
        <ele>804</ele>
        <time>2019-04-20T16:58:34Z</time>
      </trkpt>
      <trkpt lat="42.52697" lon="2.24216">
        <ele>803</ele>
        <time>2019-04-20T17:00:31Z</time>
      </trkpt>
      <trkpt lat="42.52701" lon="2.24221">
        <ele>804</ele>
        <time>2019-04-20T17:00:51Z</time>
      </trkpt>
      <trkpt lat="42.52692" lon="2.24225">
        <ele>805</ele>
        <time>2019-04-20T17:01:06Z</time>
      </trkpt>
      <trkpt lat="42.527" lon="2.24213">
        <ele>805</ele>
        <time>2019-04-20T17:01:35Z</time>
      </trkpt>
      <trkpt lat="42.52691" lon="2.24207">
        <ele>806</ele>
        <time>2019-04-20T17:01:56Z</time>
      </trkpt>
      <trkpt lat="42.527" lon="2.24218">
        <ele>808</ele>
        <time>2019-04-20T17:02:04Z</time>
      </trkpt>
      <trkpt lat="42.52714" lon="2.2422">
        <ele>808</ele>
        <time>2019-04-20T17:02:09Z</time>
      </trkpt>
      <trkpt lat="42.52696" lon="2.24221">
        <ele>808</ele>
        <time>2019-04-20T17:02:43Z</time>
      </trkpt>
      <trkpt lat="42.52687" lon="2.24213">
        <ele>809</ele>
        <time>2019-04-20T17:02:49Z</time>
      </trkpt>
      <trkpt lat="42.52679" lon="2.24205">
        <ele>812</ele>
        <time>2019-04-20T17:02:56Z</time>
      </trkpt>
      <trkpt lat="42.52689" lon="2.24209">
        <ele>808</ele>
        <time>2019-04-20T17:03:03Z</time>
      </trkpt>
      <trkpt lat="42.52699" lon="2.24208">
        <ele>808</ele>
        <time>2019-04-20T17:03:09Z</time>
      </trkpt>
      <trkpt lat="42.52699" lon="2.2422">
        <ele>806</ele>
        <time>2019-04-20T17:03:52Z</time>
      </trkpt>
      <trkpt lat="42.52693" lon="2.24225">
        <ele>802</ele>
        <time>2019-04-20T17:05:40Z</time>
      </trkpt>
      <trkpt lat="42.52683" lon="2.24218">
        <ele>804</ele>
        <time>2019-04-20T17:05:45Z</time>
      </trkpt>
      <trkpt lat="42.52694" lon="2.2422">
        <ele>803</ele>
        <time>2019-04-20T17:06:09Z</time>
      </trkpt>
      <trkpt lat="42.52689" lon="2.24231">
        <ele>804</ele>
        <time>2019-04-20T17:06:21Z</time>
      </trkpt>
      <trkpt lat="42.52699" lon="2.24235">
        <ele>803</ele>
        <time>2019-04-20T17:06:29Z</time>
      </trkpt>
      <trkpt lat="42.527" lon="2.24248">
        <ele>802</ele>
        <time>2019-04-20T17:06:39Z</time>
      </trkpt>
      <trkpt lat="42.52693" lon="2.24257">
        <ele>803</ele>
        <time>2019-04-20T17:06:47Z</time>
      </trkpt>
      <trkpt lat="42.52701" lon="2.24267">
        <ele>804</ele>
        <time>2019-04-20T17:06:59Z</time>
      </trkpt>
      <trkpt lat="42.52705" lon="2.2428">
        <ele>802</ele>
        <time>2019-04-20T17:07:07Z</time>
      </trkpt>
      <trkpt lat="42.52714" lon="2.2429">
        <ele>802</ele>
        <time>2019-04-20T17:07:17Z</time>
      </trkpt>
      <trkpt lat="42.52722" lon="2.243">
        <ele>801</ele>
        <time>2019-04-20T17:07:31Z</time>
      </trkpt>
      <trkpt lat="42.52723" lon="2.24312">
        <ele>801</ele>
        <time>2019-04-20T17:07:43Z</time>
      </trkpt>
      <trkpt lat="42.52726" lon="2.24324">
        <ele>801</ele>
        <time>2019-04-20T17:07:51Z</time>
      </trkpt>
      <trkpt lat="42.52722" lon="2.24336">
        <ele>802</ele>
        <time>2019-04-20T17:08:01Z</time>
      </trkpt>
      <trkpt lat="42.52722" lon="2.24348">
        <ele>802</ele>
        <time>2019-04-20T17:08:11Z</time>
      </trkpt>
      <trkpt lat="42.52721" lon="2.24361">
        <ele>801</ele>
        <time>2019-04-20T17:08:19Z</time>
      </trkpt>
      <trkpt lat="42.52723" lon="2.24375">
        <ele>801</ele>
        <time>2019-04-20T17:08:31Z</time>
      </trkpt>
      <trkpt lat="42.52723" lon="2.24388">
        <ele>801</ele>
        <time>2019-04-20T17:08:41Z</time>
      </trkpt>
      <trkpt lat="42.52729" lon="2.24398">
        <ele>800</ele>
        <time>2019-04-20T17:08:53Z</time>
      </trkpt>
      <trkpt lat="42.52725" lon="2.24409">
        <ele>798</ele>
        <time>2019-04-20T17:09:13Z</time>
      </trkpt>
      <trkpt lat="42.52732" lon="2.24417">
        <ele>799</ele>
        <time>2019-04-20T17:09:31Z</time>
      </trkpt>
      <trkpt lat="42.52737" lon="2.24429">
        <ele>797</ele>
        <time>2019-04-20T17:09:43Z</time>
      </trkpt>
      <trkpt lat="42.52745" lon="2.24437">
        <ele>796</ele>
        <time>2019-04-20T17:09:51Z</time>
      </trkpt>
      <trkpt lat="42.52753" lon="2.24444">
        <ele>797</ele>
        <time>2019-04-20T17:09:59Z</time>
      </trkpt>
      <trkpt lat="42.52759" lon="2.24455">
        <ele>795</ele>
        <time>2019-04-20T17:10:09Z</time>
      </trkpt>
      <trkpt lat="42.52768" lon="2.24452">
        <ele>793</ele>
        <time>2019-04-20T17:10:27Z</time>
      </trkpt>
      <trkpt lat="42.5277" lon="2.24464">
        <ele>790</ele>
        <time>2019-04-20T17:10:47Z</time>
      </trkpt>
      <trkpt lat="42.52776" lon="2.24474">
        <ele>789</ele>
        <time>2019-04-20T17:10:59Z</time>
      </trkpt>
      <trkpt lat="42.52781" lon="2.24484">
        <ele>788</ele>
        <time>2019-04-20T17:11:19Z</time>
      </trkpt>
      <trkpt lat="42.52785" lon="2.245">
        <ele>786</ele>
        <time>2019-04-20T17:11:37Z</time>
      </trkpt>
      <trkpt lat="42.52785" lon="2.24513">
        <ele>786</ele>
        <time>2019-04-20T17:11:57Z</time>
      </trkpt>
      <trkpt lat="42.52793" lon="2.2452">
        <ele>781</ele>
        <time>2019-04-20T17:13:15Z</time>
      </trkpt>
      <trkpt lat="42.52795" lon="2.24534">
        <ele>777</ele>
        <time>2019-04-20T17:14:13Z</time>
      </trkpt>
      <trkpt lat="42.52795" lon="2.24551">
        <ele>776</ele>
        <time>2019-04-20T17:14:25Z</time>
      </trkpt>
      <trkpt lat="42.52803" lon="2.24562">
        <ele>776</ele>
        <time>2019-04-20T17:14:33Z</time>
      </trkpt>
      <trkpt lat="42.52807" lon="2.24574">
        <ele>775</ele>
        <time>2019-04-20T17:14:41Z</time>
      </trkpt>
      <trkpt lat="42.52812" lon="2.24586">
        <ele>775</ele>
        <time>2019-04-20T17:14:51Z</time>
      </trkpt>
      <trkpt lat="42.52814" lon="2.24601">
        <ele>774</ele>
        <time>2019-04-20T17:15:05Z</time>
      </trkpt>
      <trkpt lat="42.52817" lon="2.24614">
        <ele>772</ele>
        <time>2019-04-20T17:15:19Z</time>
      </trkpt>
      <trkpt lat="42.52814" lon="2.24626">
        <ele>772</ele>
        <time>2019-04-20T17:15:39Z</time>
      </trkpt>
      <trkpt lat="42.52814" lon="2.24639">
        <ele>771</ele>
        <time>2019-04-20T17:15:57Z</time>
      </trkpt>
      <trkpt lat="42.52818" lon="2.2465">
        <ele>770</ele>
        <time>2019-04-20T17:16:23Z</time>
      </trkpt>
      <trkpt lat="42.52818" lon="2.24663">
        <ele>770</ele>
        <time>2019-04-20T17:16:37Z</time>
      </trkpt>
      <trkpt lat="42.52819" lon="2.24676">
        <ele>769</ele>
        <time>2019-04-20T17:16:47Z</time>
      </trkpt>
      <trkpt lat="42.52821" lon="2.24688">
        <ele>770</ele>
        <time>2019-04-20T17:16:55Z</time>
      </trkpt>
      <trkpt lat="42.52823" lon="2.24701">
        <ele>770</ele>
        <time>2019-04-20T17:17:07Z</time>
      </trkpt>
      <trkpt lat="42.52827" lon="2.24712">
        <ele>767</ele>
        <time>2019-04-20T17:17:23Z</time>
      </trkpt>
      <trkpt lat="42.52832" lon="2.24725">
        <ele>766</ele>
        <time>2019-04-20T17:17:39Z</time>
      </trkpt>
      <trkpt lat="42.52837" lon="2.24736">
        <ele>765</ele>
        <time>2019-04-20T17:17:53Z</time>
      </trkpt>
      <trkpt lat="42.52841" lon="2.24749">
        <ele>764</ele>
        <time>2019-04-20T17:18:03Z</time>
      </trkpt>
      <trkpt lat="42.52842" lon="2.24762">
        <ele>763</ele>
        <time>2019-04-20T17:18:15Z</time>
      </trkpt>
      <trkpt lat="42.52845" lon="2.24774">
        <ele>763</ele>
        <time>2019-04-20T17:18:23Z</time>
      </trkpt>
      <trkpt lat="42.52848" lon="2.24787">
        <ele>762</ele>
        <time>2019-04-20T17:18:33Z</time>
      </trkpt>
      <trkpt lat="42.52857" lon="2.24794">
        <ele>761</ele>
        <time>2019-04-20T17:18:41Z</time>
      </trkpt>
      <trkpt lat="42.52863" lon="2.24805">
        <ele>761</ele>
        <time>2019-04-20T17:18:51Z</time>
      </trkpt>
      <trkpt lat="42.52861" lon="2.24794">
        <ele>759</ele>
        <time>2019-04-20T17:19:15Z</time>
      </trkpt>
      <trkpt lat="42.52854" lon="2.24779">
        <ele>759</ele>
        <time>2019-04-20T17:19:21Z</time>
      </trkpt>
      <trkpt lat="42.52846" lon="2.24766">
        <ele>759</ele>
        <time>2019-04-20T17:19:45Z</time>
      </trkpt>
      <trkpt lat="42.52844" lon="2.24753">
        <ele>756</ele>
        <time>2019-04-20T17:20:06Z</time>
      </trkpt>
      <trkpt lat="42.52843" lon="2.2474">
        <ele>754</ele>
        <time>2019-04-20T17:20:22Z</time>
      </trkpt>
      <trkpt lat="42.5285" lon="2.24747">
        <ele>749</ele>
        <time>2019-04-20T17:20:37Z</time>
      </trkpt>
      <trkpt lat="42.52854" lon="2.2476">
        <ele>749</ele>
        <time>2019-04-20T17:20:44Z</time>
      </trkpt>
      <trkpt lat="42.52853" lon="2.24747">
        <ele>747</ele>
        <time>2019-04-20T17:20:54Z</time>
      </trkpt>
      <trkpt lat="42.52849" lon="2.24735">
        <ele>746</ele>
        <time>2019-04-20T17:21:06Z</time>
      </trkpt>
      <trkpt lat="42.52852" lon="2.24722">
        <ele>746</ele>
        <time>2019-04-20T17:21:14Z</time>
      </trkpt>
      <trkpt lat="42.5285" lon="2.24708">
        <ele>744</ele>
        <time>2019-04-20T17:21:25Z</time>
      </trkpt>
      <trkpt lat="42.52854" lon="2.24697">
        <ele>743</ele>
        <time>2019-04-20T17:21:34Z</time>
      </trkpt>
      <trkpt lat="42.52853" lon="2.24683">
        <ele>744</ele>
        <time>2019-04-20T17:21:42Z</time>
      </trkpt>
      <trkpt lat="42.52847" lon="2.24673">
        <ele>743</ele>
        <time>2019-04-20T17:21:49Z</time>
      </trkpt>
      <trkpt lat="42.5284" lon="2.24661">
        <ele>744</ele>
        <time>2019-04-20T17:22:00Z</time>
      </trkpt>
      <trkpt lat="42.5284" lon="2.24648">
        <ele>745</ele>
        <time>2019-04-20T17:22:08Z</time>
      </trkpt>
      <trkpt lat="42.52841" lon="2.24634">
        <ele>744</ele>
        <time>2019-04-20T17:22:16Z</time>
      </trkpt>
      <trkpt lat="42.5284" lon="2.2462">
        <ele>744</ele>
        <time>2019-04-20T17:22:24Z</time>
      </trkpt>
      <trkpt lat="42.52841" lon="2.24606">
        <ele>742</ele>
        <time>2019-04-20T17:22:32Z</time>
      </trkpt>
      <trkpt lat="42.52848" lon="2.24597">
        <ele>741</ele>
        <time>2019-04-20T17:22:40Z</time>
      </trkpt>
      <trkpt lat="42.52858" lon="2.24591">
        <ele>741</ele>
        <time>2019-04-20T17:22:48Z</time>
      </trkpt>
      <trkpt lat="42.52868" lon="2.2459">
        <ele>740</ele>
        <time>2019-04-20T17:22:56Z</time>
      </trkpt>
      <trkpt lat="42.52878" lon="2.24593">
        <ele>739</ele>
        <time>2019-04-20T17:23:04Z</time>
      </trkpt>
      <trkpt lat="42.52889" lon="2.246">
        <ele>739</ele>
        <time>2019-04-20T17:23:12Z</time>
      </trkpt>
      <trkpt lat="42.52896" lon="2.24607">
        <ele>740</ele>
        <time>2019-04-20T17:23:18Z</time>
      </trkpt>
      <trkpt lat="42.52904" lon="2.24619">
        <ele>739</ele>
        <time>2019-04-20T17:23:26Z</time>
      </trkpt>
      <trkpt lat="42.5291" lon="2.2463">
        <ele>740</ele>
        <time>2019-04-20T17:23:34Z</time>
      </trkpt>
      <trkpt lat="42.52893" lon="2.24592">
        <ele>740</ele>
        <time>2019-04-20T17:23:42Z</time>
      </trkpt>
      <trkpt lat="42.529" lon="2.24584">
        <ele>740</ele>
        <time>2019-04-20T17:23:58Z</time>
      </trkpt>
      <trkpt lat="42.52894" lon="2.24572">
        <ele>740</ele>
        <time>2019-04-20T17:24:14Z</time>
      </trkpt>
      <trkpt lat="42.52897" lon="2.2456">
        <ele>739</ele>
        <time>2019-04-20T17:24:22Z</time>
      </trkpt>
      <trkpt lat="42.52899" lon="2.24546">
        <ele>741</ele>
        <time>2019-04-20T17:24:32Z</time>
      </trkpt>
      <trkpt lat="42.52897" lon="2.24533">
        <ele>742</ele>
        <time>2019-04-20T17:24:48Z</time>
      </trkpt>
      <trkpt lat="42.52892" lon="2.24521">
        <ele>743</ele>
        <time>2019-04-20T17:24:56Z</time>
      </trkpt>
      <trkpt lat="42.52887" lon="2.24507">
        <ele>743</ele>
        <time>2019-04-20T17:25:06Z</time>
      </trkpt>
      <trkpt lat="42.52881" lon="2.24496">
        <ele>743</ele>
        <time>2019-04-20T17:25:14Z</time>
      </trkpt>
      <trkpt lat="42.52877" lon="2.24484">
        <ele>743</ele>
        <time>2019-04-20T17:25:20Z</time>
      </trkpt>
      <trkpt lat="42.52873" lon="2.2447">
        <ele>744</ele>
        <time>2019-04-20T17:25:30Z</time>
      </trkpt>
      <trkpt lat="42.52874" lon="2.24456">
        <ele>744</ele>
        <time>2019-04-20T17:25:38Z</time>
      </trkpt>
      <trkpt lat="42.52866" lon="2.24433">
        <ele>745</ele>
        <time>2019-04-20T17:25:44Z</time>
      </trkpt>
      <trkpt lat="42.52876" lon="2.24422">
        <ele>746</ele>
        <time>2019-04-20T17:26:00Z</time>
      </trkpt>
      <trkpt lat="42.52871" lon="2.24411">
        <ele>746</ele>
        <time>2019-04-20T17:26:06Z</time>
      </trkpt>
      <trkpt lat="42.52868" lon="2.24399">
        <ele>747</ele>
        <time>2019-04-20T17:26:12Z</time>
      </trkpt>
      <trkpt lat="42.52863" lon="2.24384">
        <ele>747</ele>
        <time>2019-04-20T17:26:24Z</time>
      </trkpt>
      <trkpt lat="42.5286" lon="2.24372">
        <ele>747</ele>
        <time>2019-04-20T17:26:36Z</time>
      </trkpt>
      <trkpt lat="42.52857" lon="2.24359">
        <ele>746</ele>
        <time>2019-04-20T17:26:42Z</time>
      </trkpt>
      <trkpt lat="42.52856" lon="2.24342">
        <ele>746</ele>
        <time>2019-04-20T17:26:48Z</time>
      </trkpt>
      <trkpt lat="42.52854" lon="2.24329">
        <ele>746</ele>
        <time>2019-04-20T17:26:56Z</time>
      </trkpt>
      <trkpt lat="42.52854" lon="2.24317">
        <ele>747</ele>
        <time>2019-04-20T17:27:06Z</time>
      </trkpt>
      <trkpt lat="42.52857" lon="2.24304">
        <ele>747</ele>
        <time>2019-04-20T17:27:16Z</time>
      </trkpt>
      <trkpt lat="42.52856" lon="2.24287">
        <ele>747</ele>
        <time>2019-04-20T17:27:28Z</time>
      </trkpt>
      <trkpt lat="42.52854" lon="2.24272">
        <ele>748</ele>
        <time>2019-04-20T17:27:34Z</time>
      </trkpt>
      <trkpt lat="42.52849" lon="2.24258">
        <ele>749</ele>
        <time>2019-04-20T17:27:40Z</time>
      </trkpt>
      <trkpt lat="42.52851" lon="2.24243">
        <ele>750</ele>
        <time>2019-04-20T17:27:50Z</time>
      </trkpt>
      <trkpt lat="42.52843" lon="2.24237">
        <ele>750</ele>
        <time>2019-04-20T17:28:00Z</time>
      </trkpt>
      <trkpt lat="42.52837" lon="2.24223">
        <ele>750</ele>
        <time>2019-04-20T17:28:06Z</time>
      </trkpt>
      <trkpt lat="42.5284" lon="2.24209">
        <ele>751</ele>
        <time>2019-04-20T17:28:26Z</time>
      </trkpt>
      <trkpt lat="42.52837" lon="2.24195">
        <ele>751</ele>
        <time>2019-04-20T17:28:34Z</time>
      </trkpt>
      <trkpt lat="42.52832" lon="2.24182">
        <ele>751</ele>
        <time>2019-04-20T17:28:40Z</time>
      </trkpt>
      <trkpt lat="42.52831" lon="2.24168">
        <ele>751</ele>
        <time>2019-04-20T17:28:50Z</time>
      </trkpt>
      <trkpt lat="42.5283" lon="2.24154">
        <ele>752</ele>
        <time>2019-04-20T17:29:02Z</time>
      </trkpt>
      <trkpt lat="42.52831" lon="2.24139">
        <ele>753</ele>
        <time>2019-04-20T17:29:14Z</time>
      </trkpt>
      <trkpt lat="42.52824" lon="2.24125">
        <ele>753</ele>
        <time>2019-04-20T17:29:20Z</time>
      </trkpt>
      <trkpt lat="42.52818" lon="2.24111">
        <ele>754</ele>
        <time>2019-04-20T17:29:26Z</time>
      </trkpt>
      <trkpt lat="42.52816" lon="2.24097">
        <ele>755</ele>
        <time>2019-04-20T17:29:36Z</time>
      </trkpt>
      <trkpt lat="42.52813" lon="2.24084">
        <ele>756</ele>
        <time>2019-04-20T17:29:44Z</time>
      </trkpt>
      <trkpt lat="42.52814" lon="2.2407">
        <ele>755</ele>
        <time>2019-04-20T17:30:00Z</time>
      </trkpt>
      <trkpt lat="42.52806" lon="2.24059">
        <ele>756</ele>
        <time>2019-04-20T17:30:06Z</time>
      </trkpt>
      <trkpt lat="42.52801" lon="2.24046">
        <ele>756</ele>
        <time>2019-04-20T17:30:14Z</time>
      </trkpt>
      <trkpt lat="42.52799" lon="2.24029">
        <ele>757</ele>
        <time>2019-04-20T17:30:22Z</time>
      </trkpt>
      <trkpt lat="42.52794" lon="2.24013">
        <ele>757</ele>
        <time>2019-04-20T17:30:28Z</time>
      </trkpt>
      <trkpt lat="42.52788" lon="2.24">
        <ele>756</ele>
        <time>2019-04-20T17:30:36Z</time>
      </trkpt>
      <trkpt lat="42.52797" lon="2.23995">
        <ele>756</ele>
        <time>2019-04-20T17:30:44Z</time>
      </trkpt>
      <trkpt lat="42.52794" lon="2.23982">
        <ele>757</ele>
        <time>2019-04-20T17:30:54Z</time>
      </trkpt>
      <trkpt lat="42.52795" lon="2.23968">
        <ele>758</ele>
        <time>2019-04-20T17:31:02Z</time>
      </trkpt>
      <trkpt lat="42.52793" lon="2.23956">
        <ele>757</ele>
        <time>2019-04-20T17:31:16Z</time>
      </trkpt>
      <trkpt lat="42.5279" lon="2.23944">
        <ele>758</ele>
        <time>2019-04-20T17:31:22Z</time>
      </trkpt>
      <trkpt lat="42.52784" lon="2.23933">
        <ele>758</ele>
        <time>2019-04-20T17:31:28Z</time>
      </trkpt>
      <trkpt lat="42.52777" lon="2.23923">
        <ele>757</ele>
        <time>2019-04-20T17:31:38Z</time>
      </trkpt>
      <trkpt lat="42.52777" lon="2.23908">
        <ele>757</ele>
        <time>2019-04-20T17:31:46Z</time>
      </trkpt>
      <trkpt lat="42.52773" lon="2.23896">
        <ele>758</ele>
        <time>2019-04-20T17:31:54Z</time>
      </trkpt>
      <trkpt lat="42.52768" lon="2.23886">
        <ele>758</ele>
        <time>2019-04-20T17:32:02Z</time>
      </trkpt>
      <trkpt lat="42.52764" lon="2.23873">
        <ele>757</ele>
        <time>2019-04-20T17:32:14Z</time>
      </trkpt>
      <trkpt lat="42.52761" lon="2.23858">
        <ele>758</ele>
        <time>2019-04-20T17:32:22Z</time>
      </trkpt>
      <trkpt lat="42.52761" lon="2.23845">
        <ele>759</ele>
        <time>2019-04-20T17:32:32Z</time>
      </trkpt>
      <trkpt lat="42.52757" lon="2.23831">
        <ele>761</ele>
        <time>2019-04-20T17:32:40Z</time>
      </trkpt>
      <trkpt lat="42.52756" lon="2.23817">
        <ele>759</ele>
        <time>2019-04-20T17:32:46Z</time>
      </trkpt>
      <trkpt lat="42.52757" lon="2.23804">
        <ele>763</ele>
        <time>2019-04-20T17:33:00Z</time>
      </trkpt>
      <trkpt lat="42.52752" lon="2.23793">
        <ele>764</ele>
        <time>2019-04-20T17:33:06Z</time>
      </trkpt>
      <trkpt lat="42.52745" lon="2.23778">
        <ele>762</ele>
        <time>2019-04-20T17:33:12Z</time>
      </trkpt>
      <trkpt lat="42.52742" lon="2.23764">
        <ele>762</ele>
        <time>2019-04-20T17:33:22Z</time>
      </trkpt>
      <trkpt lat="42.52737" lon="2.2375">
        <ele>763</ele>
        <time>2019-04-20T17:33:34Z</time>
      </trkpt>
      <trkpt lat="42.52732" lon="2.23739">
        <ele>764</ele>
        <time>2019-04-20T17:33:42Z</time>
      </trkpt>
      <trkpt lat="42.52727" lon="2.23729">
        <ele>763</ele>
        <time>2019-04-20T17:33:48Z</time>
      </trkpt>
      <trkpt lat="42.52721" lon="2.23718">
        <ele>764</ele>
        <time>2019-04-20T17:33:58Z</time>
      </trkpt>
      <trkpt lat="42.52715" lon="2.23707">
        <ele>765</ele>
        <time>2019-04-20T17:34:04Z</time>
      </trkpt>
      <trkpt lat="42.5271" lon="2.23694">
        <ele>764</ele>
        <time>2019-04-20T17:34:14Z</time>
      </trkpt>
      <trkpt lat="42.52706" lon="2.23682">
        <ele>764</ele>
        <time>2019-04-20T17:34:22Z</time>
      </trkpt>
      <trkpt lat="42.52701" lon="2.23669">
        <ele>763</ele>
        <time>2019-04-20T17:34:32Z</time>
      </trkpt>
      <trkpt lat="42.52694" lon="2.2366">
        <ele>763</ele>
        <time>2019-04-20T17:34:40Z</time>
      </trkpt>
      <trkpt lat="42.52688" lon="2.23644">
        <ele>764</ele>
        <time>2019-04-20T17:34:46Z</time>
      </trkpt>
      <trkpt lat="42.52685" lon="2.2363">
        <ele>765</ele>
        <time>2019-04-20T17:35:06Z</time>
      </trkpt>
      <trkpt lat="42.52682" lon="2.23615">
        <ele>765</ele>
        <time>2019-04-20T17:35:12Z</time>
      </trkpt>
      <trkpt lat="42.5268" lon="2.23603">
        <ele>766</ele>
        <time>2019-04-20T17:35:20Z</time>
      </trkpt>
      <trkpt lat="42.52674" lon="2.23589">
        <ele>765</ele>
        <time>2019-04-20T17:35:26Z</time>
      </trkpt>
      <trkpt lat="42.52672" lon="2.23573">
        <ele>764</ele>
        <time>2019-04-20T17:35:38Z</time>
      </trkpt>
      <trkpt lat="42.52669" lon="2.23561">
        <ele>764</ele>
        <time>2019-04-20T17:35:48Z</time>
      </trkpt>
      <trkpt lat="42.52664" lon="2.23547">
        <ele>766</ele>
        <time>2019-04-20T17:36:02Z</time>
      </trkpt>
      <trkpt lat="42.52659" lon="2.23536">
        <ele>766</ele>
        <time>2019-04-20T17:36:08Z</time>
      </trkpt>
      <trkpt lat="42.52656" lon="2.23524">
        <ele>767</ele>
        <time>2019-04-20T17:36:14Z</time>
      </trkpt>
      <trkpt lat="42.52653" lon="2.23512">
        <ele>768</ele>
        <time>2019-04-20T17:36:28Z</time>
      </trkpt>
      <trkpt lat="42.52653" lon="2.23496">
        <ele>770</ele>
        <time>2019-04-20T17:36:38Z</time>
      </trkpt>
      <trkpt lat="42.5265" lon="2.23482">
        <ele>771</ele>
        <time>2019-04-20T17:36:48Z</time>
      </trkpt>
      <trkpt lat="42.52649" lon="2.23468">
        <ele>770</ele>
        <time>2019-04-20T17:37:08Z</time>
      </trkpt>
      <trkpt lat="42.52642" lon="2.23455">
        <ele>770</ele>
        <time>2019-04-20T17:37:14Z</time>
      </trkpt>
      <trkpt lat="42.52635" lon="2.23443">
        <ele>770</ele>
        <time>2019-04-20T17:37:20Z</time>
      </trkpt>
      <trkpt lat="42.52629" lon="2.23431">
        <ele>772</ele>
        <time>2019-04-20T17:37:32Z</time>
      </trkpt>
      <trkpt lat="42.52621" lon="2.23417">
        <ele>773</ele>
        <time>2019-04-20T17:37:42Z</time>
      </trkpt>
      <trkpt lat="42.52613" lon="2.23409">
        <ele>773</ele>
        <time>2019-04-20T17:37:50Z</time>
      </trkpt>
      <trkpt lat="42.52604" lon="2.23405">
        <ele>772</ele>
        <time>2019-04-20T17:38:00Z</time>
      </trkpt>
      <trkpt lat="42.52597" lon="2.23397">
        <ele>773</ele>
        <time>2019-04-20T17:38:16Z</time>
      </trkpt>
      <trkpt lat="42.52591" lon="2.23383">
        <ele>772</ele>
        <time>2019-04-20T17:38:24Z</time>
      </trkpt>
      <trkpt lat="42.52582" lon="2.23376">
        <ele>774</ele>
        <time>2019-04-20T17:38:38Z</time>
      </trkpt>
      <trkpt lat="42.52581" lon="2.23363">
        <ele>777</ele>
        <time>2019-04-20T17:38:50Z</time>
      </trkpt>
      <trkpt lat="42.52574" lon="2.23348">
        <ele>778</ele>
        <time>2019-04-20T17:38:56Z</time>
      </trkpt>
      <trkpt lat="42.5257" lon="2.23336">
        <ele>777</ele>
        <time>2019-04-20T17:39:04Z</time>
      </trkpt>
      <trkpt lat="42.52566" lon="2.23323">
        <ele>778</ele>
        <time>2019-04-20T17:39:18Z</time>
      </trkpt>
      <trkpt lat="42.52564" lon="2.23311">
        <ele>778</ele>
        <time>2019-04-20T17:39:26Z</time>
      </trkpt>
      <trkpt lat="42.52562" lon="2.23299">
        <ele>779</ele>
        <time>2019-04-20T17:39:36Z</time>
      </trkpt>
      <trkpt lat="42.52554" lon="2.23293">
        <ele>779</ele>
        <time>2019-04-20T17:39:44Z</time>
      </trkpt>
      <trkpt lat="42.52548" lon="2.23283">
        <ele>779</ele>
        <time>2019-04-20T17:39:54Z</time>
      </trkpt>
      <trkpt lat="42.52544" lon="2.23268">
        <ele>779</ele>
        <time>2019-04-20T17:40:06Z</time>
      </trkpt>
      <trkpt lat="42.52543" lon="2.23247">
        <ele>778</ele>
        <time>2019-04-20T17:40:12Z</time>
      </trkpt>
      <trkpt lat="42.52544" lon="2.23235">
        <ele>778</ele>
        <time>2019-04-20T17:40:24Z</time>
      </trkpt>
      <trkpt lat="42.52539" lon="2.23224">
        <ele>778</ele>
        <time>2019-04-20T17:40:32Z</time>
      </trkpt>
      <trkpt lat="42.52535" lon="2.2321">
        <ele>779</ele>
        <time>2019-04-20T17:40:38Z</time>
      </trkpt>
      <trkpt lat="42.52529" lon="2.23194">
        <ele>779</ele>
        <time>2019-04-20T17:40:44Z</time>
      </trkpt>
      <trkpt lat="42.52527" lon="2.2318">
        <ele>779</ele>
        <time>2019-04-20T17:40:50Z</time>
      </trkpt>
      <trkpt lat="42.52524" lon="2.2316">
        <ele>780</ele>
        <time>2019-04-20T17:41:06Z</time>
      </trkpt>
      <trkpt lat="42.52516" lon="2.23146">
        <ele>780</ele>
        <time>2019-04-20T17:41:12Z</time>
      </trkpt>
      <trkpt lat="42.52516" lon="2.23133">
        <ele>780</ele>
        <time>2019-04-20T17:41:30Z</time>
      </trkpt>
      <trkpt lat="42.52517" lon="2.2312">
        <ele>781</ele>
        <time>2019-04-20T17:41:40Z</time>
      </trkpt>
      <trkpt lat="42.5252" lon="2.23108">
        <ele>782</ele>
        <time>2019-04-20T17:42:04Z</time>
      </trkpt>
      <trkpt lat="42.52516" lon="2.23093">
        <ele>783</ele>
        <time>2019-04-20T17:42:12Z</time>
      </trkpt>
      <trkpt lat="42.52514" lon="2.23077">
        <ele>784</ele>
        <time>2019-04-20T17:42:24Z</time>
      </trkpt>
      <trkpt lat="42.5251" lon="2.23061">
        <ele>784</ele>
        <time>2019-04-20T17:42:30Z</time>
      </trkpt>
      <trkpt lat="42.52504" lon="2.23045">
        <ele>783</ele>
        <time>2019-04-20T17:42:40Z</time>
      </trkpt>
      <trkpt lat="42.52506" lon="2.23032">
        <ele>783</ele>
        <time>2019-04-20T17:42:46Z</time>
      </trkpt>
      <trkpt lat="42.52519" lon="2.23031">
        <ele>783</ele>
        <time>2019-04-20T17:42:54Z</time>
      </trkpt>
      <trkpt lat="42.52519" lon="2.23019">
        <ele>783</ele>
        <time>2019-04-20T17:43:04Z</time>
      </trkpt>
      <trkpt lat="42.52517" lon="2.23005">
        <ele>784</ele>
        <time>2019-04-20T17:43:12Z</time>
      </trkpt>
      <trkpt lat="42.52514" lon="2.2299">
        <ele>785</ele>
        <time>2019-04-20T17:43:30Z</time>
      </trkpt>
      <trkpt lat="42.52512" lon="2.22976">
        <ele>786</ele>
        <time>2019-04-20T17:43:36Z</time>
      </trkpt>
      <trkpt lat="42.52512" lon="2.22964">
        <ele>786</ele>
        <time>2019-04-20T17:43:44Z</time>
      </trkpt>
      <trkpt lat="42.5251" lon="2.22951">
        <ele>786</ele>
        <time>2019-04-20T17:43:52Z</time>
      </trkpt>
      <trkpt lat="42.52526" lon="2.22941">
        <ele>787</ele>
        <time>2019-04-20T17:44:30Z</time>
      </trkpt>
      <trkpt lat="42.52528" lon="2.22928">
        <ele>791</ele>
        <time>2019-04-20T17:44:40Z</time>
      </trkpt>
      <trkpt lat="42.52533" lon="2.22918">
        <ele>791</ele>
        <time>2019-04-20T17:45:02Z</time>
      </trkpt>
      <trkpt lat="42.52532" lon="2.22905">
        <ele>792</ele>
        <time>2019-04-20T17:45:12Z</time>
      </trkpt>
      <trkpt lat="42.52537" lon="2.22894">
        <ele>793</ele>
        <time>2019-04-20T17:45:26Z</time>
      </trkpt>
      <trkpt lat="42.52546" lon="2.22892">
        <ele>793</ele>
        <time>2019-04-20T17:45:38Z</time>
      </trkpt>
      <trkpt lat="42.52547" lon="2.22879">
        <ele>796</ele>
        <time>2019-04-20T17:45:47Z</time>
      </trkpt>
      <trkpt lat="42.52542" lon="2.22869">
        <ele>795</ele>
        <time>2019-04-20T17:45:59Z</time>
      </trkpt>
      <trkpt lat="42.52548" lon="2.22845">
        <ele>798</ele>
        <time>2019-04-20T17:46:24Z</time>
      </trkpt>
      <trkpt lat="42.52552" lon="2.22833">
        <ele>799</ele>
        <time>2019-04-20T17:46:34Z</time>
      </trkpt>
      <trkpt lat="42.52551" lon="2.22821">
        <ele>799</ele>
        <time>2019-04-20T17:46:43Z</time>
      </trkpt>
      <trkpt lat="42.52554" lon="2.22809">
        <ele>800</ele>
        <time>2019-04-20T17:46:54Z</time>
      </trkpt>
      <trkpt lat="42.52558" lon="2.22797">
        <ele>802</ele>
        <time>2019-04-20T17:47:05Z</time>
      </trkpt>
      <trkpt lat="42.52555" lon="2.22786">
        <ele>801</ele>
        <time>2019-04-20T17:47:17Z</time>
      </trkpt>
      <trkpt lat="42.52548" lon="2.22776">
        <ele>802</ele>
        <time>2019-04-20T17:47:29Z</time>
      </trkpt>
      <trkpt lat="42.52544" lon="2.22764">
        <ele>804</ele>
        <time>2019-04-20T17:47:41Z</time>
      </trkpt>
      <trkpt lat="42.5254" lon="2.22751">
        <ele>804</ele>
        <time>2019-04-20T17:47:48Z</time>
      </trkpt>
      <trkpt lat="42.52537" lon="2.22739">
        <ele>803</ele>
        <time>2019-04-20T17:47:56Z</time>
      </trkpt>
      <trkpt lat="42.52534" lon="2.22727">
        <ele>803</ele>
        <time>2019-04-20T17:48:07Z</time>
      </trkpt>
      <trkpt lat="42.52533" lon="2.22713">
        <ele>804</ele>
        <time>2019-04-20T17:48:15Z</time>
      </trkpt>
      <trkpt lat="42.52532" lon="2.22699">
        <ele>803</ele>
        <time>2019-04-20T17:48:23Z</time>
      </trkpt>
      <trkpt lat="42.5253" lon="2.22686">
        <ele>803</ele>
        <time>2019-04-20T17:48:29Z</time>
      </trkpt>
      <trkpt lat="42.52531" lon="2.22674">
        <ele>803</ele>
        <time>2019-04-20T17:48:37Z</time>
      </trkpt>
      <trkpt lat="42.52534" lon="2.22662">
        <ele>803</ele>
        <time>2019-04-20T17:48:44Z</time>
      </trkpt>
      <trkpt lat="42.52535" lon="2.22649">
        <ele>803</ele>
        <time>2019-04-20T17:48:52Z</time>
      </trkpt>
      <trkpt lat="42.5254" lon="2.22637">
        <ele>803</ele>
        <time>2019-04-20T17:49:00Z</time>
      </trkpt>
      <trkpt lat="42.5254" lon="2.22624">
        <ele>805</ele>
        <time>2019-04-20T17:49:08Z</time>
      </trkpt>
      <trkpt lat="42.52543" lon="2.22612">
        <ele>804</ele>
        <time>2019-04-20T17:49:19Z</time>
      </trkpt>
      <trkpt lat="42.52548" lon="2.22601">
        <ele>804</ele>
        <time>2019-04-20T17:49:27Z</time>
      </trkpt>
      <trkpt lat="42.52549" lon="2.22588">
        <ele>803</ele>
        <time>2019-04-20T17:49:36Z</time>
      </trkpt>
      <trkpt lat="42.52549" lon="2.22584">
        <ele>805</ele>
        <time>2019-04-20T17:49:50Z</time>
      </trkpt>
    </trkseg>
  </trk>
</gpx>